HIGHLAND LAKE: From 06/20/2019 00:00 to 08/22/2019 00:00

Date LAKE ELEVATION [FT] OBSERVED RELEASE PRECIPITATION INCREMENT [IN] PRECIPITATION TOTAL [IN] AIR TEMPERATURE [F] RELATIVE HUMIDITY [%]
08/19/2019 21:00 1294.70 6.0 0.00 -- 71.7 80.0
08/19/2019 20:00 1294.71 6.0 0.00 -- 76.1 63.0
08/19/2019 19:00 1294.71 6.0 0.00 -- 78.7 55.0
08/19/2019 18:00 1294.71 7.0 0.00 -- 78.5 58.0
08/19/2019 17:00 1294.70 5.0 0.00 -- 81.3 56.0
08/19/2019 16:00 1294.73 6.0 0.00 -- 73.5 71.0
08/19/2019 15:00 1294.66 7.0 0.00 -- 80.0 63.0
08/19/2019 14:00 1294.65 3.0 0.00 -- 79.8 65.0
08/19/2019 13:00 1294.66 3.0 0.00 -- 77.6 65.0
08/19/2019 12:00 1294.67 3.0 0.00 -- 75.7 64.0
08/19/2019 11:00 1294.67 3.0 0.00 -- 71.2 84.0
08/19/2019 10:00 1294.66 4.0 0.00 -- 67.2 99.0
08/19/2019 09:00 1294.67 3.0 0.00 -- 64.7 100.0
08/19/2019 08:00 1294.68 3.0 0.00 -- 61.9 100.0
08/19/2019 07:00 1294.68 4.0 0.00 -- 61.0 100.0
08/19/2019 06:00 1294.67 4.0 0.00 -- 61.6 100.0
08/19/2019 05:00 1294.68 4.0 0.01 -- 62.1 100.0
08/19/2019 04:00 1294.68 4.0 0.00 -- 63.1 100.0
08/19/2019 03:00 1294.68 4.0 0.00 -- 63.7 100.0
08/19/2019 02:00 1294.68 4.0 0.00 -- 64.2 100.0
08/19/2019 01:00 1294.67 4.0 0.05 -- 65.3 100.0
08/19/2019 00:00 1294.63 4.0 0.22 -- 66.3 100.0
08/18/2019 23:00 1294.63 2.0 0.00 -- 68.9 100.0
08/18/2019 22:00 1294.63 2.0 0.00 -- 69.5 100.0
08/18/2019 21:00 1294.63 2.0 0.00 -- 70.5 100.0
08/18/2019 20:00 1294.63 2.0 0.00 -- 73.6 96.0
08/18/2019 19:00 1294.63 2.0 0.00 -- 79.9 68.0
08/18/2019 18:00 1294.62 2.0 0.00 -- 81.3 55.0
08/18/2019 17:00 1294.63 2.0 0.00 -- 82.8 48.0
08/18/2019 16:00 1294.63 2.0 0.00 -- 80.4 51.0
08/18/2019 15:00 1294.63 2.0 0.00 -- 78.8 52.0
08/18/2019 14:00 1294.62 2.0 0.00 -- 77.9 54.0
08/18/2019 13:00 1294.63 2.0 0.00 -- 76.0 61.0
08/18/2019 12:00 1294.63 2.0 0.00 -- 73.3 69.0
08/18/2019 11:00 1294.63 2.0 0.00 -- 67.9 99.0
08/18/2019 10:00 1294.62 2.0 0.00 -- 63.5 100.0
08/18/2019 09:00 1294.63 2.0 0.00 -- 61.8 100.0
08/18/2019 08:00 1294.62 2.0 0.00 -- 61.1 100.0
08/18/2019 07:00 1294.63 2.0 0.00 -- 61.2 100.0
08/18/2019 06:00 1294.63 2.0 0.00 -- 61.7 100.0
08/18/2019 05:00 1294.63 2.0 0.00 -- 61.9 100.0
08/18/2019 04:00 1294.62 2.0 0.00 -- 62.2 100.0
08/18/2019 03:00 1294.62 2.0 0.00 -- 62.1 100.0
08/18/2019 02:00 1294.63 2.0 0.00 -- 62.4 100.0
08/18/2019 01:00 1294.63 2.0 0.00 -- 63.4 100.0
08/18/2019 00:00 1294.64 2.0 0.00 0.22 62.9 100.0
08/17/2019 23:00 1294.62 2.0 0.01 -- 63.0 100.0
08/17/2019 22:00 1294.60 2.0 1.23 -- 63.2 100.0
08/17/2019 21:00 1294.54 2.0 0.01 -- 70.6 99.0
08/17/2019 20:00 1294.54 1.0 0.00 -- 72.5 87.0
08/17/2019 19:00 1294.54 1.0 0.00 -- 77.1 71.0
08/17/2019 18:00 1294.55 1.0 0.00 -- 78.4 60.0
08/17/2019 17:00 1294.52 1.0 0.00 -- 79.8 58.0
08/17/2019 16:00 1294.53 1.0 0.00 -- 79.9 58.0
08/17/2019 15:00 1294.53 1.0 0.00 -- 76.2 67.0
08/17/2019 14:00 1294.53 1.0 0.00 -- 73.8 70.0
08/17/2019 13:00 1294.53 1.0 0.00 -- 72.1 74.0
08/17/2019 12:00 1294.54 1.0 0.00 -- 69.7 85.0
08/17/2019 11:00 1294.54 1.0 0.00 -- 67.3 93.0
08/17/2019 10:00 1294.54 1.0 0.00 -- 66.0 99.0
08/17/2019 09:00 1294.54 1.0 0.00 -- 65.5 100.0
08/17/2019 08:00 1294.54 1.0 0.00 -- 64.3 100.0
08/17/2019 07:00 1294.54 1.0 0.00 -- 63.7 100.0
08/17/2019 06:00 1294.54 1.0 0.00 -- 63.3 100.0
08/17/2019 05:00 1294.55 1.0 0.00 -- 62.8 100.0
08/17/2019 04:00 1294.54 1.0 0.00 -- 62.5 100.0
08/17/2019 03:00 1294.55 1.0 0.00 -- 61.9 100.0
08/17/2019 02:00 1294.55 1.0 0.00 -- 62.1 100.0
08/17/2019 01:00 1294.55 1.0 0.00 -- 62.8 100.0
08/17/2019 00:00 1294.55 1.0 0.00 1.25 63.8 99.0
08/16/2019 23:00 1294.55 1.0 0.00 -- 65.3 94.0
08/16/2019 22:00 1294.55 1.0 0.00 -- 66.6 89.0
08/16/2019 21:00 1294.55 1.0 0.00 -- 68.0 81.0
08/16/2019 20:00 1294.55 1.0 0.00 -- 69.6 83.0
08/16/2019 19:00 1294.55 1.0 0.00 -- 73.6 68.0
08/16/2019 18:00 1294.54 1.0 0.00 -- 76.4 61.0
08/16/2019 17:00 1294.54 1.0 0.00 -- 77.8 57.0
08/16/2019 16:00 1294.55 1.0 0.00 -- 75.8 50.0
08/16/2019 15:00 1294.54 1.0 0.00 -- 75.7 57.0
08/16/2019 14:00 1294.60 1.0 -- -- 0.2 61.0
08/16/2019 13:00 1294.55 86018.0 0.00 -- 70.4 73.0
08/16/2019 12:00 1294.55 1.0 0.00 -- 70.0 74.0
08/16/2019 11:00 1294.55 1.0 0.00 -- 65.1 100.0
08/16/2019 10:00 1294.55 1.0 0.00 -- 63.4 100.0
08/16/2019 09:00 1294.55 1.0 0.00 -- 61.0 100.0
08/16/2019 08:00 1294.56 1.0 0.00 -- 59.6 100.0
08/16/2019 07:00 1294.55 1.0 0.01 -- 59.3 100.0
08/16/2019 06:00 1294.55 1.0 0.00 -- 60.4 100.0
08/16/2019 05:00 1294.55 1.0 0.02 -- 61.5 100.0
08/16/2019 04:00 1294.54 1.0 0.01 -- 61.8 100.0
08/16/2019 03:00 1294.55 1.0 0.00 -- 61.1 100.0
08/16/2019 02:00 1294.55 1.0 0.00 -- 60.7 100.0
08/16/2019 01:00 1294.55 1.0 0.00 -- 60.9 100.0
08/16/2019 00:00 1294.55 1.0 0.01 -- 61.5 100.0
08/15/2019 23:00 1294.55 1.0 0.06 -- 62.6 100.0
08/15/2019 22:00 1294.55 1.0 0.01 -- 63.7 100.0
08/15/2019 21:00 1294.55 1.0 0.00 -- 66.0 92.0
08/15/2019 20:00 1294.55 1.0 0.00 -- 70.0 72.0
08/15/2019 19:00 1294.55 1.0 0.00 -- 74.3 62.0
08/15/2019 18:00 1294.54 1.0 0.00 -- 76.1 50.0
08/15/2019 17:00 1294.55 1.0 0.00 -- 75.5 52.0
08/15/2019 16:00 1294.54 1.0 0.00 -- 74.4 55.0
08/15/2019 15:00 1294.53 1.0 0.00 -- 74.8 56.0
08/15/2019 14:00 1294.55 1.0 0.00 -- 71.1 64.0
08/15/2019 13:00 1294.56 1.0 0.00 -- 70.8 63.0
08/15/2019 12:00 1294.55 1.0 0.00 -- 68.6 66.0
08/15/2019 11:00 1294.56 1.0 0.00 -- 66.9 68.0
08/15/2019 10:00 1294.56 1.0 0.00 -- 63.3 75.0
08/15/2019 09:00 1294.55 1.0 0.00 -- 57.9 98.0
08/15/2019 08:00 1294.56 1.0 0.00 -- 53.5 100.0
08/15/2019 07:00 1294.56 1.0 0.00 -- 54.4 100.0
08/15/2019 06:00 1294.56 1.0 0.00 -- 54.3 100.0
08/15/2019 05:00 1294.56 1.0 0.00 -- 54.6 100.0
08/15/2019 04:00 1294.56 1.0 0.00 -- 56.0 100.0
08/15/2019 03:00 1294.56 1.0 0.00 -- 56.7 100.0
08/15/2019 02:00 1294.56 1.0 0.00 -- 57.5 100.0
08/15/2019 01:00 1294.56 1.0 0.00 -- 59.0 100.0
08/15/2019 00:00 1294.56 1.0 0.00 0.08 59.9 100.0
08/14/2019 23:00 1294.56 1.0 0.00 -- 60.5 99.0
08/14/2019 22:00 1294.56 1.0 0.00 -- 63.0 86.0
08/14/2019 21:00 1294.56 1.0 0.00 -- 67.3 75.0
08/14/2019 20:00 1294.55 1.0 0.00 -- 73.5 57.0
08/14/2019 19:00 1294.55 1.0 0.00 -- 75.8 49.0
08/14/2019 18:00 1294.56 1.0 0.00 -- 77.7 45.0
08/14/2019 17:00 1294.56 1.0 0.00 -- 75.9 45.0
08/14/2019 16:00 1294.56 1.0 0.00 -- 76.9 39.0
08/14/2019 15:00 1294.56 1.0 0.00 -- 74.5 41.0
08/14/2019 14:00 1294.57 1.0 0.00 -- 72.3 47.0
08/14/2019 13:00 1294.57 1.0 0.00 -- 69.9 53.0
08/14/2019 12:00 1294.57 1.0 0.00 -- 68.0 55.0
08/14/2019 11:00 1294.57 1.0 0.00 -- 66.1 59.0
08/14/2019 10:00 1294.57 1.0 0.00 -- 63.8 62.0
08/14/2019 09:00 1294.56 1.0 0.00 -- 60.7 84.0
08/14/2019 08:00 1294.57 1.0 0.00 -- 59.0 100.0
08/14/2019 07:00 1294.56 1.0 0.00 -- 58.5 100.0
08/14/2019 06:00 1294.57 1.0 0.00 -- 58.5 100.0
08/14/2019 05:00 1294.57 1.0 0.00 -- 58.6 100.0
08/14/2019 04:00 1294.57 1.0 0.00 -- 58.6 100.0
08/14/2019 03:00 1294.57 1.0 0.00 -- 59.1 100.0
08/14/2019 02:00 1294.57 1.0 0.00 -- 61.0 100.0
08/14/2019 01:00 1294.57 1.0 0.00 -- 62.7 100.0
08/14/2019 00:00 1294.57 1.0 0.00 0.00 64.6 100.0
08/13/2019 23:00 1294.57 1.0 0.00 -- 65.4 100.0
08/13/2019 22:00 1294.57 1.0 0.00 -- 67.2 99.0
08/13/2019 21:00 1294.56 1.0 0.00 -- 68.9 93.0
08/13/2019 20:00 1294.56 1.0 0.00 -- 73.0 75.0
08/13/2019 19:00 1294.56 1.0 0.00 -- 73.6 75.0
08/13/2019 18:00 1294.55 1.0 0.00 -- 75.8 65.0
08/13/2019 17:00 1294.55 1.0 0.00 -- 76.0 66.0
08/13/2019 16:00 1294.53 1.0 0.00 -- 73.7 69.0
08/13/2019 15:00 1294.54 1.0 0.00 -- 69.9 81.0
08/13/2019 14:00 1294.55 1.0 0.00 -- 68.7 82.0
08/13/2019 13:00 1294.56 1.0 0.00 -- 70.3 77.0
08/13/2019 12:00 1294.54 1.0 0.00 -- 71.3 70.0
08/13/2019 11:00 1294.55 1.0 0.00 -- 70.0 71.0
08/13/2019 10:00 1294.55 1.0 0.00 -- 67.9 76.0
08/13/2019 09:00 1294.55 1.0 0.00 -- 65.8 87.0
08/13/2019 08:00 1294.55 1.0 0.00 -- 62.6 100.0
08/13/2019 07:00 1294.55 1.0 0.00 -- 63.2 99.0
08/13/2019 06:00 1294.55 1.0 0.01 -- 63.3 100.0
08/13/2019 05:00 1294.55 1.0 0.00 -- 65.1 87.0
08/13/2019 04:00 1294.54 1.0 0.00 -- 65.2 84.0
08/13/2019 03:00 1294.55 1.0 0.00 -- 67.0 73.0
08/13/2019 02:00 1294.56 1.0 0.00 -- 67.1 72.0
08/13/2019 01:00 1294.55 1.0 0.00 -- 65.7 76.0
08/13/2019 00:00 1294.55 1.0 0.00 0.01 64.6 79.0
08/12/2019 23:00 1294.55 1.0 0.00 -- 65.1 78.0
08/12/2019 22:00 1294.55 1.0 0.00 -- 65.5 76.0
08/12/2019 21:00 1294.56 1.0 0.00 -- 67.9 71.0
08/12/2019 20:00 1294.56 1.0 0.00 -- 72.3 61.0
08/12/2019 19:00 1294.55 1.0 0.00 -- 75.8 50.0
08/12/2019 18:00 1294.55 1.0 0.00 -- 78.1 43.0
08/12/2019 17:00 1294.56 1.0 0.00 -- 78.2 41.0
08/12/2019 16:00 1294.55 1.0 0.00 -- 77.1 46.0
08/12/2019 15:00 1294.57 1.0 0.00 -- 75.8 46.0
08/12/2019 14:00 1294.56 1.0 0.00 -- 74.6 50.0
08/12/2019 13:00 1294.55 1.0 0.00 -- 72.6 55.0
08/12/2019 12:00 1294.56 1.0 0.00 -- 70.1 58.0
08/12/2019 11:00 1294.56 1.0 0.00 -- 68.8 60.0
08/12/2019 10:00 1294.57 1.0 0.00 -- 62.5 73.0
08/12/2019 09:00 1294.56 1.0 0.00 -- 57.9 84.0
08/12/2019 08:00 1294.56 1.0 0.00 -- 55.1 97.0
08/12/2019 07:00 1294.57 1.0 0.00 -- 53.7 99.0
08/12/2019 06:00 1294.56 1.0 0.00 -- 53.5 99.0
08/12/2019 05:00 1294.57 1.0 0.00 -- 52.9 99.0
08/12/2019 04:00 1294.57 1.0 0.00 -- 53.6 99.0
08/12/2019 03:00 1294.57 1.0 0.00 -- 54.1 99.0
08/12/2019 02:00 1294.57 1.0 0.00 -- 54.4 99.0
08/12/2019 01:00 1294.58 1.0 0.00 -- 55.1 99.0
08/12/2019 00:00 1294.57 1.0 0.00 0.00 55.2 99.0
08/11/2019 23:00 1294.57 1.0 0.00 -- 56.2 96.0
08/11/2019 22:00 1294.58 1.0 0.00 -- 58.9 90.0
08/11/2019 21:00 1294.58 1.0 0.00 -- 62.4 79.0
08/11/2019 20:00 1294.58 1.0 0.00 -- 70.2 56.0
08/11/2019 19:00 1294.57 1.0 0.00 -- 72.3 48.0
08/11/2019 18:00 1294.58 1.0 0.00 -- 72.0 44.0
08/11/2019 17:00 1294.56 1.0 0.00 -- 70.1 45.0
08/11/2019 16:00 1294.57 1.0 0.00 -- 71.2 47.0
08/11/2019 15:00 1294.58 1.0 0.00 -- 69.1 45.0
08/11/2019 14:00 1294.59 2.0 0.00 -- 66.8 50.0
08/11/2019 13:00 1294.58 1.0 0.00 -- 65.4 53.0
08/11/2019 12:00 1294.58 1.0 0.00 -- 64.8 52.0
08/11/2019 11:00 1294.58 2.0 0.00 -- 62.8 58.0
08/11/2019 10:00 1294.58 1.0 0.00 -- 58.4 72.0
08/11/2019 09:00 1294.58 1.0 0.00 -- 54.8 85.0
08/11/2019 08:00 1294.58 1.0 0.00 -- 48.4 99.0
08/11/2019 07:00 1294.58 1.0 0.00 -- 47.1 99.0
08/11/2019 06:00 1294.58 1.0 0.00 -- 47.3 99.0
08/11/2019 05:00 1294.58 1.0 0.00 -- 48.0 99.0
08/11/2019 04:00 1294.58 1.0 0.00 -- 50.8 99.0
08/11/2019 03:00 1294.59 1.0 0.00 -- 52.4 94.0
08/11/2019 02:00 1294.58 1.0 0.00 -- 52.7 90.0
08/11/2019 01:00 1294.58 1.0 0.00 -- 55.4 83.0
08/11/2019 00:00 1294.59 2.0 0.00 0.00 56.2 78.0
08/10/2019 23:00 1294.58 1.0 0.00 -- 55.8 77.0
08/10/2019 22:00 1294.59 1.0 0.00 -- 57.9 66.0
08/10/2019 21:00 1294.60 1.0 0.00 -- 61.0 57.0
08/10/2019 20:00 1294.60 2.0 0.00 -- 64.0 51.0
08/10/2019 19:00 1294.60 2.0 0.00 -- 66.9 44.0
08/10/2019 18:00 1294.61 2.0 0.00 -- 66.3 41.0
08/10/2019 17:00 1294.61 2.0 0.00 -- 66.5 55.0
08/10/2019 16:00 1294.58 2.0 0.02 -- 62.2 68.0
08/10/2019 15:00 1294.61 2.0 0.00 -- 67.0 52.0
08/10/2019 14:00 1294.60 2.0 0.00 -- 63.5 64.0
08/10/2019 13:00 1294.61 2.0 0.00 -- 67.3 51.0
08/10/2019 12:00 1294.59 2.0 0.00 -- 66.0 57.0
08/10/2019 11:00 1294.60 2.0 0.00 -- 64.4 64.0
08/10/2019 10:00 1294.59 1.0 0.00 -- 61.5 72.0
08/10/2019 09:00 1294.59 1.0 0.00 -- 58.9 79.0
08/10/2019 08:00 1294.59 2.0 0.00 -- 52.6 99.0
08/10/2019 07:00 1294.59 2.0 0.00 -- 51.1 99.0
08/10/2019 06:00 1294.59 2.0 0.00 -- 52.1 98.0
08/10/2019 05:00 1294.59 2.0 0.00 -- 55.0 86.0
08/10/2019 04:00 1294.60 2.0 0.00 -- 58.4 73.0
08/10/2019 03:00 1294.60 1.0 0.00 -- 57.8 75.0
08/10/2019 02:00 1294.60 2.0 0.00 -- 54.0 99.0
08/10/2019 01:00 1294.60 2.0 0.00 -- 55.0 99.0
08/10/2019 00:00 1294.60 2.0 0.00 0.02 55.9 95.0
08/09/2019 23:00 1294.60 2.0 0.00 -- 57.6 87.0
08/09/2019 22:00 1294.61 2.0 0.00 -- 60.3 76.0
08/09/2019 21:00 1294.60 2.0 0.00 -- 65.7 63.0
08/09/2019 20:00 1294.60 2.0 0.00 -- 70.4 46.0
08/09/2019 19:00 1294.58 2.0 0.00 -- 73.5 44.0
08/09/2019 18:00 1294.59 2.0 0.00 -- 74.7 40.0
08/09/2019 17:00 1294.60 1.0 0.00 -- 74.6 40.0
08/09/2019 16:00 1294.60 2.0 0.00 -- 74.1 44.0
08/09/2019 15:00 1294.59 2.0 0.00 -- 72.8 46.0
08/09/2019 14:00 1294.60 2.0 0.00 -- 72.4 46.0
08/09/2019 13:00 1294.59 2.0 0.00 -- 71.5 46.0
08/09/2019 12:00 1294.61 2.0 0.00 -- 69.6 55.0
08/09/2019 11:00 1294.62 2.0 0.00 -- 68.2 63.0
08/09/2019 10:00 1294.61 2.0 0.00 -- 65.5 77.0
08/09/2019 09:00 1294.60 2.0 0.00 -- 62.4 94.0
08/09/2019 08:00 1294.61 2.0 0.00 -- 59.3 100.0
08/09/2019 07:00 1294.60 2.0 0.00 -- 59.4 100.0
08/09/2019 06:00 1294.61 2.0 0.00 -- 57.8 100.0
08/09/2019 05:00 1294.61 2.0 0.00 -- 60.4 99.0
08/09/2019 04:00 1294.61 2.0 0.00 -- 61.6 92.0
08/09/2019 03:00 1294.61 2.0 0.00 -- 61.0 96.0
08/09/2019 02:00 1294.61 2.0 0.00 -- 60.6 99.0
08/09/2019 01:00 1294.61 2.0 0.00 -- 61.0 100.0
08/09/2019 00:00 1294.60 2.0 0.00 0.00 62.0 97.0
08/08/2019 23:00 1294.62 2.0 0.00 -- 62.8 98.0
08/08/2019 22:00 1294.60 2.0 0.00 -- 64.6 85.0
08/08/2019 21:00 1294.61 2.0 0.00 -- 65.1 89.0
08/08/2019 20:00 1294.61 2.0 0.00 -- 70.3 71.0
08/08/2019 19:00 1294.63 2.0 0.00 -- 74.5 60.0
08/08/2019 18:00 1294.61 2.0 0.00 -- 77.1 52.0
08/08/2019 17:00 1294.60 2.0 0.00 -- 78.8 46.0
08/08/2019 16:00 1294.60 2.0 0.00 -- 78.1 51.0
08/08/2019 15:00 1294.62 2.0 0.00 -- 77.0 59.0
08/08/2019 14:00 1294.60 2.0 0.00 -- 73.9 68.0
08/08/2019 13:00 1294.61 2.0 0.00 -- 70.7 75.0
08/08/2019 12:00 1294.61 2.0 0.00 -- 67.9 91.0
08/08/2019 11:00 1294.61 2.0 0.00 -- 66.8 100.0
08/08/2019 10:00 1294.62 2.0 0.01 -- 65.3 100.0
08/08/2019 09:00 1294.60 2.0 0.00 -- 64.6 100.0
08/08/2019 08:00 1294.62 2.0 0.00 -- 63.6 100.0
08/08/2019 07:00 1294.62 2.0 0.00 -- 63.8 100.0
08/08/2019 06:00 1294.62 2.0 0.00 -- 63.9 100.0
08/08/2019 05:00 1294.62 2.0 0.01 -- 63.5 100.0
08/08/2019 04:00 1294.62 2.0 0.00 -- 63.4 100.0
08/08/2019 03:00 1294.62 2.0 0.00 -- 63.6 100.0
08/08/2019 02:00 1294.62 2.0 0.00 -- 63.8 100.0
08/08/2019 01:00 1294.62 2.0 0.04 -- 64.0 100.0
08/08/2019 00:00 1294.61 2.0 0.04 0.06 64.4 100.0
08/07/2019 23:00 1294.61 2.0 0.01 -- 64.6 100.0
08/07/2019 22:00 1294.61 2.0 0.09 -- 65.9 100.0
08/07/2019 21:00 1294.60 2.0 0.00 -- 68.1 100.0
08/07/2019 20:00 1294.60 2.0 0.00 -- 68.5 100.0
08/07/2019 19:00 1294.61 2.0 0.00 -- 68.9 100.0
08/07/2019 18:00 1294.63 2.0 0.17 -- 67.2 100.0
08/07/2019 17:00 1294.52 2.0 0.61 -- 66.8 100.0
08/07/2019 16:00 1294.53 1.0 0.00 -- 78.7 63.0
08/07/2019 15:00 1294.53 1.0 0.00 -- 77.9 63.0
08/07/2019 14:00 1294.53 1.0 0.00 -- 75.4 68.0
08/07/2019 13:00 1294.53 1.0 0.00 -- 71.9 77.0
08/07/2019 12:00 1294.53 1.0 0.00 -- 70.2 83.0
08/07/2019 11:00 1294.54 1.0 0.00 -- 68.0 91.0
08/07/2019 10:00 1294.53 1.0 0.00 -- 66.6 99.0
08/07/2019 09:00 1294.54 1.0 0.00 -- 65.3 100.0
08/07/2019 08:00 1294.54 1.0 0.00 -- 65.1 100.0
08/07/2019 07:00 1294.54 1.0 0.00 -- 64.9 100.0
08/07/2019 06:00 1294.55 1.0 0.00 -- 64.1 100.0
08/07/2019 05:00 1294.55 1.0 0.00 -- 62.1 100.0
08/07/2019 04:00 1294.55 1.0 0.00 -- 62.8 100.0
08/07/2019 03:00 1294.55 1.0 0.00 -- 64.3 99.0
08/07/2019 02:00 1294.54 1.0 0.00 -- 65.6 92.0
08/07/2019 01:00 1294.54 1.0 0.00 -- 64.9 89.0
08/07/2019 00:00 1294.55 1.0 0.00 0.92 64.5 90.0
08/06/2019 23:00 1294.55 1.0 0.00 -- 65.4 86.0
08/06/2019 22:00 1294.55 1.0 0.00 -- 67.4 81.0
08/06/2019 21:00 1294.56 1.0 0.00 -- 71.5 69.0
08/06/2019 20:00 1294.55 1.0 0.00 -- 74.8 61.0
08/06/2019 19:00 1294.55 1.0 0.00 -- 75.2 62.0
08/06/2019 18:00 1294.54 1.0 0.00 -- 78.1 53.0
08/06/2019 17:00 1294.55 1.0 0.00 -- 78.6 46.0
08/06/2019 16:00 1294.54 1.0 0.00 -- 78.0 49.0
08/06/2019 15:00 1294.55 1.0 0.00 -- 79.3 45.0
08/06/2019 14:00 1294.55 1.0 0.00 -- 79.4 43.0
08/06/2019 13:00 1294.55 1.0 0.00 -- 76.9 44.0
08/06/2019 12:00 1294.55 1.0 0.00 -- 74.1 49.0
08/06/2019 11:00 1294.54 1.0 0.00 -- 72.0 59.0
08/06/2019 10:00 1294.55 1.0 0.00 -- 67.2 69.0
08/06/2019 09:00 1294.56 1.0 0.00 -- 57.6 100.0
08/06/2019 08:00 1294.56 1.0 0.00 -- 52.8 100.0
08/06/2019 07:00 1294.56 1.0 0.00 -- 51.9 100.0
08/06/2019 06:00 1294.56 1.0 0.00 -- 52.0 100.0
08/06/2019 05:00 1294.57 1.0 0.00 -- 52.3 100.0
08/06/2019 04:00 1294.56 1.0 0.00 -- 52.3 99.0
08/06/2019 03:00 1294.56 1.0 0.00 -- 53.7 99.0
08/06/2019 02:00 1294.57 1.0 0.00 -- 54.4 99.0
08/06/2019 01:00 1294.57 1.0 0.00 -- 55.2 98.0
08/06/2019 00:00 1294.57 1.0 0.00 0.00 57.1 96.0
08/05/2019 23:00 1294.57 1.0 0.00 -- 58.5 95.0
08/05/2019 22:00 1294.57 1.0 0.00 -- 60.3 77.0
08/05/2019 21:00 1294.57 1.0 0.00 -- 65.3 68.0
08/05/2019 20:00 1294.57 1.0 0.00 -- 75.5 45.0
08/05/2019 19:00 1294.57 1.0 0.00 -- 77.8 34.0
08/05/2019 18:00 1294.57 1.0 0.00 -- 77.7 33.0
08/05/2019 17:00 1294.57 1.0 0.00 -- 76.3 33.0
08/05/2019 16:00 1294.57 1.0 0.00 -- 76.3 36.0
08/05/2019 15:00 1294.57 1.0 0.00 -- 73.3 39.0
08/05/2019 14:00 1294.58 1.0 0.00 -- 70.7 44.0
08/05/2019 13:00 1294.57 1.0 0.00 -- 69.3 45.0
08/05/2019 12:00 1294.58 1.0 0.00 -- 67.0 48.0
08/05/2019 11:00 1294.58 1.0 0.00 -- 66.4 49.0
08/05/2019 10:00 1294.57 1.0 0.00 -- 63.0 59.0
08/05/2019 09:00 1294.57 1.0 0.00 -- 51.6 94.0
08/05/2019 08:00 1294.58 1.0 0.00 -- 46.7 99.0
08/05/2019 07:00 1294.57 1.0 0.00 -- 45.4 99.0
08/05/2019 06:00 1294.58 1.0 0.00 -- 46.1 99.0
08/05/2019 05:00 1294.59 1.0 0.00 -- 47.1 99.0
08/05/2019 04:00 1294.58 1.0 0.00 -- 47.5 98.0
08/05/2019 03:00 1294.59 1.0 0.00 -- 48.7 95.0
08/05/2019 02:00 1294.58 1.0 0.00 -- 50.0 94.0
08/05/2019 01:00 1294.59 1.0 0.00 -- 53.3 89.0
08/05/2019 00:00 1294.59 2.0 0.00 0.00 53.1 84.0
08/04/2019 23:00 1294.59 1.0 0.00 -- 57.6 77.0
08/04/2019 22:00 1294.59 2.0 0.00 -- 60.2 65.0
08/04/2019 21:00 1294.59 2.0 0.00 -- 64.6 56.0
08/04/2019 20:00 1294.59 2.0 0.00 -- 74.3 39.0
08/04/2019 19:00 1294.61 2.0 0.00 -- 75.9 36.0
08/04/2019 18:00 1294.63 2.0 0.00 -- 76.1 39.0
08/04/2019 17:00 1294.60 2.0 0.00 -- 76.6 40.0
08/04/2019 16:00 1294.61 2.0 0.00 -- 77.0 42.0
08/04/2019 15:00 1294.61 2.0 0.00 -- 75.5 48.0
08/04/2019 14:00 1294.58 2.0 0.00 -- 75.4 48.0
08/04/2019 13:00 1294.60 2.0 0.00 -- 72.9 57.0
08/04/2019 12:00 1294.60 2.0 0.00 -- 71.7 62.0
08/04/2019 11:00 1294.60 2.0 0.00 -- 70.9 66.0
08/04/2019 10:00 1294.60 2.0 0.00 -- 68.6 75.0
08/04/2019 09:00 1294.60 2.0 0.00 -- 63.3 100.0
08/04/2019 08:00 1294.60 2.0 0.00 -- 59.5 100.0
08/04/2019 07:00 1294.59 2.0 0.00 -- 59.2 100.0
08/04/2019 06:00 1294.59 2.0 0.00 -- 59.0 100.0
08/04/2019 05:00 1294.60 2.0 0.00 -- 60.6 100.0
08/04/2019 04:00 1294.60 2.0 0.00 -- 60.9 100.0
08/04/2019 03:00 1294.60 2.0 0.00 -- 61.7 100.0
08/04/2019 02:00 1294.60 2.0 0.00 -- 62.7 100.0
08/04/2019 01:00 1294.59 2.0 0.00 -- 63.4 100.0
08/04/2019 00:00 1294.58 2.0 0.00 0.00 64.3 100.0
08/03/2019 23:00 1294.60 1.0 0.00 -- 63.8 100.0
08/03/2019 22:00 1294.59 2.0 0.00 -- 66.1 98.0
08/03/2019 21:00 1294.59 2.0 0.00 -- 69.7 82.0
08/03/2019 20:00 1294.58 1.0 0.00 -- 73.1 72.0
08/03/2019 19:00 1294.58 1.0 0.00 -- 73.7 72.0
08/03/2019 18:00 1294.58 1.0 0.00 -- 75.1 68.0
08/03/2019 17:00 1294.58 1.0 0.00 -- 74.0 72.0
08/03/2019 16:00 1294.60 2.0 0.00 -- 78.0 57.0
08/03/2019 15:00 1294.60 2.0 0.00 -- 77.4 57.0
08/03/2019 14:00 1294.58 2.0 0.00 -- 74.5 66.0
08/03/2019 13:00 1294.60 1.0 0.00 -- 73.6 67.0
08/03/2019 12:00 1294.59 2.0 0.00 -- 72.3 74.0
08/03/2019 11:00 1294.59 2.0 0.00 -- 66.6 95.0
08/03/2019 10:00 1294.60 2.0 0.03 -- 64.4 100.0
08/03/2019 09:00 1294.59 2.0 0.03 -- 63.3 100.0
08/03/2019 08:00 1294.60 2.0 0.02 -- 60.4 100.0
08/03/2019 07:00 1294.60 2.0 0.00 -- 59.4 100.0
08/03/2019 06:00 1294.60 2.0 0.00 -- 59.1 100.0
08/03/2019 05:00 1294.60 2.0 0.00 -- 58.7 99.0
08/03/2019 04:00 1294.60 2.0 0.00 -- 59.5 99.0
08/03/2019 03:00 1294.60 2.0 0.00 -- 60.3 96.0
08/03/2019 02:00 1294.61 2.0 0.00 -- 59.1 97.0
08/03/2019 01:00 1294.61 2.0 0.00 -- 58.8 99.0
08/03/2019 00:00 1294.60 2.0 0.00 0.08 59.5 99.0
08/02/2019 23:00 1294.61 2.0 0.00 -- 61.1 94.0
08/02/2019 22:00 1294.61 2.0 0.00 -- 63.5 87.0
08/02/2019 21:00 1294.61 2.0 0.00 -- 68.1 67.0
08/02/2019 20:00 1294.61 2.0 0.00 -- 77.9 45.0
08/02/2019 19:00 1294.61 2.0 0.00 -- 79.4 37.0
08/02/2019 18:00 1294.61 2.0 0.00 -- 80.5 33.0
08/02/2019 17:00 1294.60 2.0 0.00 -- 79.5 28.0
08/02/2019 16:00 1294.61 2.0 0.00 -- 79.5 21.0
08/02/2019 15:00 1294.62 2.0 0.00 -- 77.3 29.0
08/02/2019 14:00 1294.61 2.0 0.00 -- 76.1 30.0
08/02/2019 13:00 1294.62 2.0 0.00 -- 75.4 36.0
08/02/2019 12:00 1294.61 2.0 0.00 -- 73.2 38.0
08/02/2019 11:00 1294.61 2.0 0.00 -- 71.2 40.0
08/02/2019 10:00 1294.61 2.0 0.00 -- 65.9 64.0
08/02/2019 09:00 1294.62 2.0 0.00 -- 55.4 99.0
08/02/2019 08:00 1294.62 2.0 0.00 -- 49.8 99.0
08/02/2019 07:00 1294.62 2.0 0.00 -- 48.7 99.0
08/02/2019 06:00 1294.62 2.0 0.00 -- 50.0 100.0
08/02/2019 05:00 1294.62 2.0 0.00 -- 51.1 100.0
08/02/2019 04:00 1294.62 2.0 0.00 -- 51.7 99.0
08/02/2019 03:00 1294.63 2.0 0.00 -- 53.7 100.0
08/02/2019 02:00 1294.63 2.0 0.00 -- 54.2 99.0
08/02/2019 01:00 1294.63 2.0 0.00 -- 55.3 99.0
08/02/2019 00:00 1294.63 2.0 0.00 0.00 55.8 93.0
08/01/2019 23:00 1294.63 2.0 0.00 -- 58.9 88.0
08/01/2019 22:00 1294.63 2.0 0.00 -- 62.4 74.0
08/01/2019 21:00 1294.63 2.0 0.00 -- 66.3 63.0
08/01/2019 20:00 1294.63 2.0 0.00 -- 75.8 41.0
08/01/2019 19:00 1294.64 2.0 0.00 -- 78.0 40.0
08/01/2019 18:00 1294.64 2.0 0.00 -- 76.6 39.0
08/01/2019 17:00 1294.64 2.0 0.00 -- 78.4 37.0
08/01/2019 16:00 1294.65 3.0 0.00 -- 78.2 34.0
08/01/2019 15:00 1294.63 2.0 0.00 -- 76.5 31.0
08/01/2019 14:00 1294.64 2.0 0.00 -- 74.8 38.0
08/01/2019 13:00 1294.64 3.0 0.00 -- 73.8 44.0
08/01/2019 12:00 1294.66 3.0 0.00 -- 72.3 44.0
08/01/2019 11:00 1294.64 3.0 0.00 -- 70.9 53.0
08/01/2019 10:00 1294.64 2.0 0.00 -- 69.9 62.0
08/01/2019 09:00 1294.65 2.0 0.00 -- 65.0 78.0
08/01/2019 08:00 1294.64 2.0 0.00 -- 60.4 100.0
08/01/2019 07:00 1294.64 2.0 0.00 -- 59.1 100.0
08/01/2019 06:00 1294.64 2.0 0.00 -- 60.5 100.0
08/01/2019 05:00 1294.64 2.0 0.00 -- 60.2 100.0
08/01/2019 04:00 1294.64 2.0 0.00 -- 61.9 100.0
08/01/2019 03:00 1294.64 2.0 0.00 -- 61.2 100.0
08/01/2019 02:00 1294.64 2.0 0.00 -- 61.9 100.0
08/01/2019 01:00 1294.64 2.0 0.00 -- 62.8 100.0
08/01/2019 00:00 1294.65 2.0 0.00 0.00 63.6 100.0
07/31/2019 23:00 1294.64 2.0 0.00 -- 65.2 94.0
07/31/2019 22:00 1294.64 2.0 0.00 -- 66.9 86.0
07/31/2019 21:00 1294.64 2.0 0.00 -- 71.0 76.0
07/31/2019 20:00 1294.64 3.0 0.00 -- 72.5 70.0
07/31/2019 19:00 1294.64 2.0 0.00 -- 72.7 68.0
07/31/2019 18:00 1294.64 2.0 0.00 -- 75.2 61.0
07/31/2019 17:00 1294.64 2.0 0.00 -- 74.4 63.0
07/31/2019 16:00 1294.65 2.0 0.00 -- 75.9 64.0
07/31/2019 15:00 1294.66 3.0 0.00 -- 76.3 59.0
07/31/2019 14:00 1294.65 2.0 0.00 -- 77.3 62.0
07/31/2019 13:00 1294.65 2.0 0.00 -- 76.3 64.0
07/31/2019 12:00 1294.65 3.0 0.00 -- 75.3 66.0
07/31/2019 11:00 1294.65 2.0 0.00 -- 74.8 71.0
07/31/2019 10:00 1294.64 2.0 0.00 -- 73.2 74.0
07/31/2019 09:00 1294.65 2.0 0.00 -- 70.1 95.0
07/31/2019 08:00 1294.65 2.0 0.00 -- 68.0 100.0
07/31/2019 07:00 1294.64 2.0 0.00 -- 68.1 100.0
07/31/2019 06:00 1294.65 2.0 0.00 -- 66.7 100.0
07/31/2019 05:00 1294.65 3.0 0.00 -- 63.3 100.0
07/31/2019 04:00 1294.65 3.0 0.00 -- 63.2 100.0
07/31/2019 03:00 1294.65 3.0 0.00 -- 64.2 100.0
07/31/2019 02:00 1294.65 3.0 0.00 -- 64.9 98.0
07/31/2019 01:00 1294.66 3.0 0.00 -- 67.3 86.0
07/31/2019 00:00 1294.66 3.0 0.00 0.00 70.6 76.0
07/30/2019 23:00 1294.66 3.0 0.00 -- 73.4 74.0
07/30/2019 22:00 1294.65 3.0 0.00 -- 72.0 72.0
07/30/2019 21:00 1294.63 3.0 0.00 -- 75.0 66.0
07/30/2019 20:00 1294.66 2.0 0.00 -- 82.3 51.0
07/30/2019 19:00 1294.64 2.0 0.00 -- 81.4 56.0
07/30/2019 18:00 1294.64 3.0 0.00 -- 85.3 47.0
07/30/2019 17:00 1294.64 2.0 0.00 -- 87.7 42.0
07/30/2019 16:00 1294.65 2.0 0.00 -- 86.1 50.0
07/30/2019 15:00 1294.65 3.0 0.00 -- 86.1 46.0
07/30/2019 14:00 1294.66 3.0 0.00 -- 84.3 49.0
07/30/2019 13:00 1294.66 3.0 0.00 -- 82.8 53.0
07/30/2019 12:00 1294.66 3.0 0.00 -- 81.6 59.0
07/30/2019 11:00 1294.66 3.0 0.00 -- 78.6 65.0
07/30/2019 10:00 1294.65 3.0 0.00 -- 75.3 72.0
07/30/2019 09:00 1294.65 3.0 0.00 -- 71.2 82.0
07/30/2019 08:00 1294.66 3.0 0.00 -- 64.4 100.0
07/30/2019 07:00 1294.66 3.0 0.00 -- 63.2 100.0
07/30/2019 06:00 1294.66 3.0 0.00 -- 63.2 100.0
07/30/2019 05:00 1294.67 3.0 0.00 -- 63.6 100.0
07/30/2019 04:00 1294.67 3.0 0.00 -- 63.3 100.0
07/30/2019 03:00 1294.66 3.0 0.00 -- 63.2 99.0
07/30/2019 02:00 1294.67 3.0 0.00 -- 63.6 100.0
07/30/2019 01:00 1294.67 3.0 0.00 -- 64.4 99.0
07/30/2019 00:00 1294.67 3.0 0.00 0.00 65.4 96.0
07/29/2019 23:00 1294.67 4.0 0.00 -- 66.8 91.0
07/29/2019 22:00 1294.67 4.0 0.00 -- 69.3 81.0
07/29/2019 21:00 1294.68 4.0 0.00 -- 73.8 70.0
07/29/2019 20:00 1294.68 4.0 0.00 -- 82.4 51.0
07/29/2019 19:00 1294.67 4.0 0.00 -- 83.6 44.0
07/29/2019 18:00 1294.68 4.0 0.00 -- 85.0 43.0
07/29/2019 17:00 1294.67 3.0 0.00 -- 83.4 45.0
07/29/2019 16:00 1294.66 4.0 0.00 -- 83.3 47.0
07/29/2019 15:00 1294.67 3.0 0.00 -- 82.3 53.0
07/29/2019 14:00 1294.68 4.0 0.00 -- 81.4 54.0
07/29/2019 13:00 1294.67 4.0 0.00 -- 78.7 62.0
07/29/2019 12:00 1294.68 4.0 0.00 -- 77.5 63.0
07/29/2019 11:00 1294.68 4.0 0.00 -- 76.3 66.0
07/29/2019 10:00 1294.68 4.0 0.00 -- 73.2 74.0
07/29/2019 09:00 1294.68 4.0 0.00 -- 68.8 88.0
07/29/2019 08:00 1294.68 4.0 0.00 -- 65.7 99.0
07/29/2019 07:00 1294.68 4.0 0.00 -- 62.8 100.0
07/29/2019 06:00 1294.68 5.0 0.00 -- 62.5 100.0
07/29/2019 05:00 1294.69 4.0 0.00 -- 63.5 100.0
07/29/2019 04:00 1294.68 4.0 0.00 -- 64.7 98.0
07/29/2019 03:00 1294.68 4.0 0.00 -- 66.4 91.0
07/29/2019 02:00 1294.69 4.0 0.00 -- 68.0 83.0
07/29/2019 01:00 1294.68 5.0 0.00 -- 69.0 79.0
07/29/2019 00:00 1294.68 4.0 0.00 0.00 70.0 74.0
07/28/2019 23:00 1294.68 4.0 0.00 -- 71.7 69.0
07/28/2019 22:00 1294.69 4.0 0.00 -- 73.2 69.0
07/28/2019 21:00 1294.68 5.0 0.00 -- 75.1 68.0
07/28/2019 20:00 1294.69 5.0 0.00 -- 78.0 59.0
07/28/2019 19:00 1294.68 5.0 0.00 -- 82.8 49.0
07/28/2019 18:00 1294.68 5.0 0.00 -- 80.6 47.0
07/28/2019 17:00 1294.67 4.0 0.00 -- 84.3 41.0
07/28/2019 16:00 1294.68 4.0 0.00 -- 83.5 49.0
07/28/2019 15:00 1294.68 4.0 0.00 -- 82.0 47.0
07/28/2019 14:00 1294.68 4.0 0.00 -- 80.9 51.0
07/28/2019 13:00 1294.69 4.0 0.00 -- 78.9 59.0
07/28/2019 12:00 1294.69 5.0 0.00 -- 77.1 61.0
07/28/2019 11:00 1294.69 5.0 0.00 -- 73.7 67.0
07/28/2019 10:00 1294.68 5.0 0.00 -- 70.2 77.0
07/28/2019 09:00 1294.69 5.0 0.00 -- 66.0 94.0
07/28/2019 08:00 1294.70 5.0 0.00 -- 63.7 100.0
07/28/2019 07:00 1294.70 5.0 0.00 -- 63.1 100.0
07/28/2019 06:00 1294.70 6.0 0.00 -- 63.6 100.0
07/28/2019 05:00 1294.70 6.0 0.00 -- 63.7 100.0
07/28/2019 04:00 1294.70 6.0 0.00 -- 64.2 100.0
07/28/2019 03:00 1294.70 6.0 0.00 -- 64.8 100.0
07/28/2019 02:00 1294.70 5.0 0.00 -- 66.3 98.0
07/28/2019 01:00 1294.70 5.0 0.00 -- 67.6 94.0
07/28/2019 00:00 1294.70 6.0 0.00 0.00 66.9 95.0
07/27/2019 23:00 1294.71 6.0 0.00 -- 66.5 92.0
07/27/2019 22:00 1294.71 7.0 0.00 -- 67.9 86.0
07/27/2019 21:00 1294.70 7.0 0.00 -- 72.0 76.0
07/27/2019 20:00 1294.71 6.0 0.00 -- 78.6 57.0
07/27/2019 19:00 1294.71 7.0 0.00 -- 79.5 56.0
07/27/2019 18:00 1294.71 7.0 0.00 -- 81.4 50.0
07/27/2019 17:00 1294.71 6.0 0.00 -- 81.2 47.0
07/27/2019 16:00 1294.71 7.0 0.00 -- 81.8 36.0
07/27/2019 15:00 1294.72 7.0 0.00 -- 80.7 40.0
07/27/2019 14:00 1294.71 7.0 0.00 -- 79.2 41.0
07/27/2019 13:00 1294.72 8.0 0.00 -- 74.8 57.0
07/27/2019 12:00 1294.72 8.0 0.00 -- 76.8 50.0
07/27/2019 11:00 1294.72 8.0 0.00 -- 73.5 59.0
07/27/2019 10:00 1294.72 7.0 0.00 -- 67.0 88.0
07/27/2019 09:00 1294.72 7.0 0.00 -- 61.6 100.0
07/27/2019 08:00 1294.73 8.0 0.00 -- 57.8 100.0
07/27/2019 07:00 1294.72 8.0 0.00 -- 57.0 100.0
07/27/2019 06:00 1294.73 8.0 0.00 -- 57.3 100.0
07/27/2019 05:00 1294.73 9.0 0.00 -- 57.9 100.0
07/27/2019 04:00 1294.73 9.0 0.00 -- 57.7 100.0
07/27/2019 03:00 1294.73 9.0 0.00 -- 56.9 100.0
07/27/2019 02:00 1294.73 9.0 0.00 -- 57.0 100.0
07/27/2019 01:00 1294.74 9.0 0.00 -- 57.6 100.0
07/27/2019 00:00 1294.74 10.0 0.00 0.00 58.9 99.0
07/26/2019 23:00 1294.74 10.0 0.00 -- 60.3 99.0
07/26/2019 22:00 1294.74 10.0 0.00 -- 62.8 90.0
07/26/2019 21:00 1294.74 10.0 0.00 -- 68.1 67.0
07/26/2019 20:00 1294.74 10.0 0.00 -- 78.3 52.0
07/26/2019 19:00 1294.74 10.0 0.00 -- 81.9 38.0
07/26/2019 18:00 1294.74 10.0 0.00 -- 81.7 31.0
07/26/2019 17:00 1294.74 10.0 0.00 -- 80.6 42.0
07/26/2019 16:00 1294.74 10.0 0.00 -- 80.1 34.0
07/26/2019 15:00 1294.74 10.0 0.00 -- 79.4 44.0
07/26/2019 14:00 1294.74 10.0 0.00 -- 77.3 43.0
07/26/2019 13:00 1294.75 10.0 0.00 -- 74.7 56.0
07/26/2019 12:00 1294.75 11.0 0.00 -- 74.8 48.0
07/26/2019 11:00 1294.75 11.0 0.00 -- 73.4 55.0
07/26/2019 10:00 1294.75 11.0 0.00 -- 69.2 67.0
07/26/2019 09:00 1294.75 11.0 0.00 -- 59.8 100.0
07/26/2019 08:00 1294.75 11.0 0.00 -- 54.8 100.0
07/26/2019 07:00 1294.75 12.0 0.00 -- 53.4 100.0
07/26/2019 06:00 1294.76 11.0 0.00 -- 54.0 100.0
07/26/2019 05:00 1294.75 12.0 0.00 -- 55.3 100.0
07/26/2019 04:00 1294.76 12.0 0.00 -- 55.1 100.0
07/26/2019 03:00 1294.76 12.0 0.00 -- 55.4 100.0
07/26/2019 02:00 1294.76 11.0 0.00 -- 55.6 100.0
07/26/2019 01:00 1294.76 12.0 0.00 -- 56.7 99.0
07/26/2019 00:00 1294.76 12.0 0.00 0.00 58.1 99.0
07/25/2019 23:00 1294.76 12.0 0.00 -- 61.4 93.0
07/25/2019 22:00 1294.76 13.0 0.00 -- 62.9 83.0
07/25/2019 21:00 1294.77 14.0 0.00 -- 66.4 77.0
07/25/2019 20:00 1294.77 14.0 0.00 -- 67.7 77.0
07/25/2019 19:00 1294.76 14.0 0.00 -- 71.6 66.0
07/25/2019 18:00 1294.77 14.0 0.00 -- 73.9 55.0
07/25/2019 17:00 1294.78 15.0 0.00 -- 74.3 48.0
07/25/2019 16:00 1294.77 15.0 0.00 -- 74.3 46.0
07/25/2019 15:00 1294.77 15.0 0.00 -- 74.6 46.0
07/25/2019 14:00 1294.77 15.0 0.00 -- 73.7 44.0
07/25/2019 13:00 1294.78 15.0 0.00 -- 71.9 48.0
07/25/2019 12:00 1294.78 15.0 0.00 -- 70.7 47.0
07/25/2019 11:00 1294.77 15.0 0.00 -- 69.0 54.0
07/25/2019 10:00 1294.78 15.0 0.00 -- 66.6 66.0
07/25/2019 09:00 1294.78 15.0 0.00 -- 56.7 100.0
07/25/2019 08:00 1294.78 15.0 0.00 -- 51.0 100.0
07/25/2019 07:00 1294.78 15.0 0.00 -- 49.6 100.0
07/25/2019 06:00 1294.78 15.0 0.00 -- 49.9 100.0
07/25/2019 05:00 1294.79 15.0 0.00 -- 50.4 100.0
07/25/2019 04:00 1294.79 16.0 0.00 -- 51.1 100.0
07/25/2019 03:00 1294.79 16.0 0.00 -- 51.7 100.0
07/25/2019 02:00 1294.79 16.0 0.00 -- 52.3 100.0
07/25/2019 01:00 1294.79 16.0 0.00 -- 53.2 100.0
07/25/2019 00:00 1294.79 16.0 0.00 0.00 54.4 99.0
07/24/2019 23:00 1294.79 17.0 0.00 -- 56.3 99.0
07/24/2019 22:00 1294.79 17.0 0.00 -- 58.6 88.0
07/24/2019 21:00 1294.80 17.0 0.00 -- 64.0 70.0
07/24/2019 20:00 1294.80 17.0 0.00 -- 74.3 46.0
07/24/2019 19:00 1294.80 18.0 0.00 -- 74.3 45.0
07/24/2019 18:00 1294.81 19.0 0.00 -- 74.2 38.0
07/24/2019 17:00 1294.81 19.0 0.00 -- 74.0 44.0
07/24/2019 16:00 1294.82 20.0 0.00 -- 73.8 41.0
07/24/2019 15:00 1294.82 20.0 0.00 -- 73.0 41.0
07/24/2019 14:00 1294.80 22.0 0.00 -- 71.3 37.0
07/24/2019 13:00 1294.83 20.0 0.00 -- 70.7 45.0
07/24/2019 12:00 1294.81 21.0 0.00 -- 69.3 52.0
07/24/2019 11:00 1294.82 21.0 0.00 -- 68.8 55.0
07/24/2019 10:00 1294.82 22.0 0.00 -- 65.9 71.0
07/24/2019 09:00 1294.81 20.0 0.00 -- 60.4 96.0
07/24/2019 08:00 1294.81 19.0 0.00 -- 57.4 100.0
07/24/2019 07:00 1294.81 19.0 0.00 -- 57.1 100.0
07/24/2019 06:00 1294.81 19.0 0.00 -- 57.7 100.0
07/24/2019 05:00 1294.81 19.0 0.00 -- 56.8 100.0
07/24/2019 04:00 1294.81 19.0 0.00 -- 56.6 100.0
07/24/2019 03:00 1294.81 19.0 0.00 -- 57.2 100.0
07/24/2019 02:00 1294.80 19.0 0.00 -- 57.6 100.0
07/24/2019 01:00 1294.81 18.0 0.00 -- 58.1 100.0
07/24/2019 00:00 1294.80 19.0 0.00 0.00 58.3 100.0
07/23/2019 23:00 1294.80 18.0 0.00 -- 58.9 100.0
07/23/2019 22:00 1294.80 18.0 0.00 -- 59.6 100.0
07/23/2019 21:00 1294.80 18.0 0.00 -- 61.8 100.0
07/23/2019 20:00 1294.80 18.0 0.00 -- 65.1 90.0
07/23/2019 19:00 1294.79 18.0 0.00 -- 67.9 73.0
07/23/2019 18:00 1294.80 18.0 0.00 -- 69.4 69.0
07/23/2019 17:00 1294.79 17.0 0.00 -- 64.5 81.0
07/23/2019 16:00 1294.78 17.0 0.00 -- 64.1 93.0
07/23/2019 15:00 1294.79 16.0 0.00 -- 63.1 86.0
07/23/2019 14:00 1294.78 15.0 0.00 -- 58.8 99.0
07/23/2019 13:00 1294.79 15.0 0.00 -- 58.2 100.0
07/23/2019 12:00 1294.78 16.0 0.01 -- 56.6 100.0
07/23/2019 11:00 1294.78 15.0 0.02 -- 57.6 100.0
07/23/2019 10:00 1294.77 15.0 0.11 -- 58.5 100.0
07/23/2019 09:00 1294.75 14.0 0.13 -- 59.0 100.0
07/23/2019 08:00 1294.74 11.0 0.12 -- 58.7 100.0
07/23/2019 07:00 1294.73 10.0 0.05 -- 58.6 100.0
07/23/2019 06:00 1294.73 8.0 0.15 -- 59.0 100.0
07/23/2019 05:00 1294.71 8.0 0.18 -- 58.6 100.0
07/23/2019 04:00 1294.70 7.0 0.00 -- 58.8 100.0
07/23/2019 03:00 1294.70 6.0 0.01 -- 58.4 100.0
07/23/2019 02:00 1294.70 6.0 0.03 -- 58.6 100.0
07/23/2019 01:00 1294.69 6.0 0.01 -- 59.0 100.0
07/23/2019 00:00 1294.70 5.0 0.27 0.82 59.4 100.0
07/22/2019 23:00 1294.67 5.0 0.13 -- 59.6 100.0
07/22/2019 22:00 1294.66 3.0 0.03 -- 60.5 100.0
07/22/2019 21:00 1294.66 3.0 0.05 -- 60.4 100.0
07/22/2019 20:00 1294.66 3.0 0.13 -- 61.4 100.0
07/22/2019 19:00 1294.65 3.0 0.16 -- 61.8 100.0
07/22/2019 18:00 1294.63 2.0 0.08 -- 61.9 100.0
07/22/2019 17:00 1294.62 2.0 0.12 -- 61.8 100.0
07/22/2019 16:00 1294.61 2.0 0.09 -- 62.4 100.0
07/22/2019 15:00 1294.61 2.0 0.12 -- 64.2 100.0
07/22/2019 14:00 1294.58 2.0 0.01 -- 66.4 98.0
07/22/2019 13:00 1294.58 2.0 0.00 -- 67.0 99.0
07/22/2019 12:00 1294.58 1.0 0.00 -- 69.0 90.0
07/22/2019 11:00 1294.58 1.0 0.00 -- 70.2 73.0
07/22/2019 10:00 1294.58 1.0 0.00 -- 70.5 65.0
07/22/2019 09:00 1294.59 1.0 0.00 -- 67.6 77.0
07/22/2019 08:00 1294.59 2.0 0.00 -- 63.4 99.0
07/22/2019 07:00 1294.58 1.0 0.00 -- 61.4 100.0
07/22/2019 06:00 1294.58 1.0 0.00 -- 62.4 100.0
07/22/2019 05:00 1294.58 1.0 0.00 -- 62.6 100.0
07/22/2019 04:00 1294.58 1.0 0.00 -- 63.7 99.0
07/22/2019 03:00 1294.58 1.0 0.00 -- 65.2 94.0
07/22/2019 02:00 1294.57 1.0 0.00 -- 66.1 89.0
07/22/2019 01:00 1294.59 1.0 0.00 -- 68.2 86.0
07/22/2019 00:00 1294.59 1.0 0.00 1.19 72.3 77.0
07/21/2019 23:00 1294.58 1.0 0.00 -- 75.0 68.0
07/21/2019 22:00 1294.58 1.0 0.00 -- 76.2 69.0
07/21/2019 21:00 1294.58 1.0 0.00 -- 78.5 68.0
07/21/2019 20:00 1294.58 1.0 0.00 -- 81.2 62.0
07/21/2019 19:00 1294.58 1.0 0.00 -- 84.0 54.0
07/21/2019 18:00 1294.58 1.0 0.00 -- 84.1 55.0
07/21/2019 17:00 1294.60 2.0 0.00 -- 85.1 52.0
07/21/2019 16:00 1294.60 1.0 0.00 -- 84.3 53.0
07/21/2019 15:00 1294.59 2.0 0.00 -- 83.2 55.0
07/21/2019 14:00 1294.58 1.0 0.00 -- 84.0 52.0
07/21/2019 13:00 1294.58 2.0 0.00 -- 83.0 52.0
07/21/2019 12:00 1294.57 1.0 0.00 -- 81.5 59.0
07/21/2019 11:00 1294.56 1.0 0.00 -- 80.5 61.0
07/21/2019 10:00 1294.58 1.0 0.00 -- 77.4 71.0
07/21/2019 09:00 1294.59 1.0 0.00 -- 76.0 76.0
07/21/2019 08:00 1294.58 1.0 0.00 -- 72.4 86.0
07/21/2019 07:00 1294.58 1.0 0.00 -- 72.7 84.0
07/21/2019 06:00 1294.59 1.0 0.00 -- 72.7 84.0
07/21/2019 05:00 1294.59 1.0 0.00 -- 75.0 77.0
07/21/2019 04:00 1294.58 1.0 0.00 -- 74.5 77.0
07/21/2019 03:00 1294.59 1.0 0.00 -- 74.0 78.0
07/21/2019 02:00 1294.59 1.0 0.00 -- 76.7 74.0
07/21/2019 01:00 1294.59 1.0 0.00 -- 78.3 72.0
07/21/2019 00:00 1294.59 2.0 0.00 0.00 77.7 85.0
07/20/2019 23:00 1294.58 1.0 0.00 -- 76.6 88.0
07/20/2019 22:00 1294.59 1.0 0.00 -- 77.7 84.0
07/20/2019 21:00 1294.59 1.0 0.00 -- 82.9 68.0
07/20/2019 20:00 1294.59 1.0 0.00 -- 86.3 59.0
07/20/2019 19:00 1294.58 1.0 0.00 -- 88.6 53.0
07/20/2019 18:00 1294.59 1.0 0.00 -- 89.0 50.0
07/20/2019 17:00 1294.58 1.0 0.00 -- 89.9 48.0
07/20/2019 16:00 1294.59 1.0 0.00 -- 88.7 47.0
07/20/2019 15:00 1294.58 2.0 0.00 -- 87.3 50.0
07/20/2019 14:00 1294.59 1.0 0.00 -- 85.2 59.0
07/20/2019 13:00 1294.60 1.0 0.00 -- 84.1 61.0
07/20/2019 12:00 1294.59 2.0 0.00 -- 82.5 66.0
07/20/2019 11:00 1294.59 2.0 0.00 -- 81.2 66.0
07/20/2019 10:00 1294.60 1.0 0.00 -- 78.7 72.0
07/20/2019 09:00 1294.59 2.0 0.00 -- 75.9 82.0
07/20/2019 08:00 1294.60 2.0 0.00 -- 71.6 100.0
07/20/2019 07:00 1294.60 2.0 0.00 -- 73.2 88.0
07/20/2019 06:00 1294.59 2.0 0.00 -- 73.7 88.0
07/20/2019 05:00 1294.60 2.0 0.00 -- 74.7 86.0
07/20/2019 04:00 1294.59 2.0 0.00 -- 74.9 85.0
07/20/2019 03:00 1294.59 1.0 0.00 -- 75.4 86.0
07/20/2019 02:00 1294.59 2.0 0.00 -- 75.1 89.0
07/20/2019 01:00 1294.58 2.0 0.00 -- 73.9 91.0
07/20/2019 00:00 1294.60 1.0 0.00 0.00 73.8 90.0
07/19/2019 23:00 1294.59 2.0 0.00 -- 74.5 85.0
07/19/2019 22:00 1294.59 2.0 0.00 -- 78.7 72.0
07/19/2019 21:00 1294.59 1.0 0.00 -- 80.4 68.0
07/19/2019 20:00 1294.59 1.0 0.00 -- 82.1 65.0
07/19/2019 19:00 1294.60 2.0 0.00 -- 85.2 58.0
07/19/2019 18:00 1294.58 2.0 0.00 -- 85.4 56.0
07/19/2019 17:00 1294.59 2.0 0.00 -- 84.8 56.0
07/19/2019 16:00 1294.59 2.0 0.00 -- 84.1 60.0
07/19/2019 15:00 1294.57 1.0 0.00 -- 82.9 61.0
07/19/2019 14:00 1294.59 1.0 0.00 -- 80.3 64.0
07/19/2019 13:00 1294.58 1.0 0.00 -- 78.1 66.0
07/19/2019 12:00 1294.60 2.0 0.00 -- 75.3 72.0
07/19/2019 11:00 1294.60 2.0 0.00 -- 73.0 76.0
07/19/2019 10:00 1294.60 2.0 0.00 -- 71.2 77.0
07/19/2019 09:00 1294.59 2.0 0.00 -- 64.7 80.0
07/19/2019 08:00 1294.60 2.0 0.00 -- 62.5 80.0
07/19/2019 07:00 1294.59 2.0 0.00 -- 60.8 87.0
07/19/2019 06:00 1294.60 2.0 0.00 -- 61.4 86.0
07/19/2019 05:00 1294.60 2.0 0.00 -- 62.2 79.0
07/19/2019 04:00 1294.60 2.0 0.00 -- 60.9 84.0
07/19/2019 03:00 1294.60 2.0 0.00 -- 60.7 83.0
07/19/2019 02:00 1294.60 2.0 0.00 -- 60.5 85.0
07/19/2019 01:00 1294.60 2.0 0.00 -- 59.8 90.0
07/19/2019 00:00 1294.60 2.0 0.00 0.00 60.2 87.0
07/18/2019 23:00 1294.60 2.0 0.00 -- 62.4 82.0
07/18/2019 22:00 1294.61 2.0 0.00 -- 63.6 78.0
07/18/2019 21:00 1294.60 2.0 0.00 -- 65.9 72.0
07/18/2019 20:00 1294.60 2.0 0.00 -- 66.7 75.0
07/18/2019 19:00 1294.61 2.0 0.00 -- 69.0 70.0
07/18/2019 18:00 1294.60 2.0 0.00 -- 71.2 65.0
07/18/2019 17:00 1294.60 2.0 0.00 -- 76.1 57.0
07/18/2019 16:00 1294.61 2.0 0.00 -- 76.0 55.0
07/18/2019 15:00 1294.61 2.0 0.00 -- 74.3 60.0
07/18/2019 14:00 1294.60 2.0 0.00 -- 72.0 64.0
07/18/2019 13:00 1294.61 2.0 0.00 -- 69.8 71.0
07/18/2019 12:00 1294.60 2.0 0.00 -- 67.5 78.0
07/18/2019 11:00 1294.62 2.0 0.00 -- 63.8 99.0
07/18/2019 10:00 1294.62 2.0 0.00 -- 62.7 100.0
07/18/2019 09:00 1294.62 2.0 0.00 -- 64.1 100.0
07/18/2019 08:00 1294.62 2.0 0.00 -- 64.5 100.0
07/18/2019 07:00 1294.61 2.0 0.00 -- 63.1 100.0
07/18/2019 06:00 1294.61 2.0 0.00 -- 62.6 100.0
07/18/2019 05:00 1294.61 2.0 0.00 -- 63.8 100.0
07/18/2019 04:00 1294.61 2.0 0.00 -- 64.4 100.0
07/18/2019 03:00 1294.61 2.0 0.00 -- 64.4 100.0
07/18/2019 02:00 1294.61 2.0 0.00 -- 64.3 100.0
07/18/2019 01:00 1294.61 2.0 0.00 -- 65.6 100.0
07/18/2019 00:00 1294.60 2.0 0.00 0.00 66.7 100.0
07/17/2019 23:00 1294.61 2.0 0.00 -- 67.1 100.0
07/17/2019 22:00 1294.61 2.0 0.00 -- 67.0 100.0
07/17/2019 21:00 1294.61 2.0 0.00 -- 68.2 100.0
07/17/2019 20:00 1294.60 2.0 0.00 -- 69.7 100.0
07/17/2019 19:00 1294.61 2.0 0.06 -- 69.5 100.0
07/17/2019 18:00 1294.60 2.0 0.03 -- 69.4 100.0
07/17/2019 17:00 1294.59 2.0 0.07 -- 70.2 100.0
07/17/2019 16:00 1294.60 2.0 0.01 -- 72.0 100.0
07/17/2019 15:00 1294.59 2.0 0.00 -- 74.9 77.0
07/17/2019 14:00 1294.57 2.0 0.00 -- 74.9 78.0
07/17/2019 13:00 1294.58 1.0 0.00 -- 72.3 91.0
07/17/2019 12:00 1294.57 1.0 0.00 -- 72.2 87.0
07/17/2019 11:00 1294.58 1.0 0.00 -- 70.5 98.0
07/17/2019 10:00 1294.58 1.0 0.02 -- 68.9 100.0
07/17/2019 09:00 1294.58 1.0 0.01 -- 68.5 100.0
07/17/2019 08:00 1294.58 1.0 0.00 -- 69.0 92.0
07/17/2019 07:00 1294.58 1.0 0.00 -- 68.4 91.0
07/17/2019 06:00 1294.57 1.0 0.00 -- 69.3 86.0
07/17/2019 05:00 1294.59 1.0 0.00 -- 69.1 87.0
07/17/2019 04:00 1294.58 1.0 0.00 -- 70.2 82.0
07/17/2019 03:00 1294.56 1.0 0.00 -- 71.3 77.0
07/17/2019 02:00 1294.57 1.0 0.00 -- 72.6 73.0
07/17/2019 01:00 1294.58 1.0 0.00 -- 69.4 83.0
07/17/2019 00:00 1294.58 1.0 0.00 0.20 68.7 84.0
07/16/2019 23:00 1294.59 1.0 0.00 -- 67.1 92.0
07/16/2019 22:00 1294.59 1.0 0.00 -- 69.1 85.0
07/16/2019 21:00 1294.59 1.0 0.00 -- 72.9 76.0
07/16/2019 20:00 1294.58 1.0 0.00 -- 81.9 53.0
07/16/2019 19:00 1294.58 1.0 0.00 -- 80.7 51.0
07/16/2019 18:00 1294.57 1.0 0.00 -- 79.1 55.0
07/16/2019 17:00 1294.59 1.0 0.00 -- 73.4 65.0
07/16/2019 16:00 1294.58 2.0 0.00 -- 73.1 63.0
07/16/2019 15:00 1294.59 1.0 0.00 -- 73.4 57.0
07/16/2019 14:00 1294.58 1.0 0.00 -- 75.1 52.0
07/16/2019 13:00 1294.57 1.0 0.00 -- 73.5 45.0
07/16/2019 12:00 1294.57 1.0 0.00 -- 72.8 53.0
07/16/2019 11:00 1294.57 1.0 0.00 -- 71.8 54.0
07/16/2019 10:00 1294.58 1.0 0.00 -- 67.4 66.0
07/16/2019 09:00 1294.59 1.0 0.00 -- 58.5 100.0
07/16/2019 08:00 1294.59 2.0 0.00 -- 54.0 100.0
07/16/2019 07:00 1294.60 1.0 0.00 -- 52.7 100.0
07/16/2019 06:00 1294.59 2.0 0.00 -- 52.5 100.0
07/16/2019 05:00 1294.59 2.0 0.00 -- 52.9 100.0
07/16/2019 04:00 1294.59 2.0 0.00 -- 54.1 100.0
07/16/2019 03:00 1294.60 2.0 0.00 -- 55.2 100.0
07/16/2019 02:00 1294.60 2.0 0.00 -- 55.6 100.0
07/16/2019 01:00 1294.60 2.0 0.00 -- 56.0 99.0
07/16/2019 00:00 1294.60 2.0 0.00 0.00 57.1 99.0
07/15/2019 23:00 1294.60 2.0 0.00 -- 58.8 95.0
07/15/2019 22:00 1294.60 2.0 0.00 -- 61.3 84.0
07/15/2019 21:00 1294.60 2.0 0.00 -- 66.9 69.0
07/15/2019 20:00 1294.60 2.0 0.00 -- 71.0 58.0
07/15/2019 19:00 1294.61 2.0 0.00 -- 75.4 44.0
07/15/2019 18:00 1294.61 2.0 0.00 -- 74.7 49.0
07/15/2019 17:00 1294.60 2.0 0.00 -- 75.8 42.0
07/15/2019 16:00 1294.61 2.0 0.00 -- 73.5 48.0
07/15/2019 15:00 1294.61 2.0 0.00 -- 72.8 48.0
07/15/2019 14:00 1294.61 2.0 0.00 -- 72.3 47.0
07/15/2019 13:00 1294.60 2.0 0.00 -- 68.6 53.0
07/15/2019 12:00 1294.63 2.0 0.00 -- 68.0 57.0
07/15/2019 11:00 1294.62 2.0 0.00 -- 67.1 55.0
07/15/2019 10:00 1294.60 2.0 0.00 -- 64.9 63.0
07/15/2019 09:00 1294.63 2.0 0.00 -- 61.9 72.0
07/15/2019 08:00 1294.61 2.0 0.00 -- 55.4 99.0
07/15/2019 07:00 1294.61 2.0 0.00 -- 53.5 99.0
07/15/2019 06:00 1294.61 2.0 0.00 -- 53.9 99.0
07/15/2019 05:00 1294.61 2.0 0.00 -- 55.5 99.0
07/15/2019 04:00 1294.61 2.0 0.00 -- 57.0 94.0
07/15/2019 03:00 1294.61 2.0 0.00 -- 60.4 84.0
07/15/2019 02:00 1294.62 2.0 0.00 -- 61.6 81.0
07/15/2019 01:00 1294.62 2.0 0.00 -- 63.3 80.0
07/15/2019 00:00 1294.62 2.0 0.00 0.00 60.5 88.0
07/14/2019 23:00 1294.62 2.0 0.00 -- 62.5 81.0
07/14/2019 22:00 1294.62 2.0 0.00 -- 65.4 73.0
07/14/2019 21:00 1294.62 2.0 0.00 -- 71.9 59.0
07/14/2019 20:00 1294.63 2.0 0.00 -- 75.9 47.0
07/14/2019 19:00 1294.63 2.0 0.00 -- 78.2 45.0
07/14/2019 18:00 1294.64 2.0 0.00 -- 78.6 45.0
07/14/2019 17:00 1294.63 3.0 0.00 -- 78.6 44.0
07/14/2019 16:00 1294.61 2.0 0.00 -- 78.3 45.0
07/14/2019 15:00 1294.63 2.0 0.00 -- 76.4 50.0
07/14/2019 14:00 1294.63 2.0 0.00 -- 77.3 51.0
07/14/2019 13:00 1294.62 2.0 0.00 -- 77.6 44.0
07/14/2019 12:00 1294.64 2.0 0.00 -- 75.4 51.0
07/14/2019 11:00 1294.62 2.0 0.00 -- 73.8 61.0
07/14/2019 10:00 1294.62 2.0 0.00 -- 72.0 67.0
07/14/2019 09:00 1294.62 2.0 0.00 -- 68.4 79.0
07/14/2019 08:00 1294.62 2.0 0.00 -- 61.7 100.0
07/14/2019 07:00 1294.63 2.0 0.00 -- 60.5 99.0
07/14/2019 06:00 1294.63 2.0 0.00 -- 60.2 100.0
07/14/2019 05:00 1294.63 2.0 0.00 -- 61.3 99.0
07/14/2019 04:00 1294.63 2.0 0.00 -- 62.6 99.0
07/14/2019 03:00 1294.63 2.0 0.00 -- 63.3 99.0
07/14/2019 02:00 1294.63 2.0 0.00 -- 63.7 97.0
07/14/2019 01:00 1294.63 2.0 0.00 -- 63.8 94.0
07/14/2019 00:00 1294.63 2.0 0.00 0.00 63.8 94.0
07/13/2019 23:00 1294.63 2.0 0.00 -- 65.4 89.0
07/13/2019 22:00 1294.64 2.0 0.00 -- 67.3 83.0
07/13/2019 21:00 1294.64 2.0 0.00 -- 72.5 71.0
07/13/2019 20:00 1294.63 2.0 0.00 -- 80.5 49.0
07/13/2019 19:00 1294.63 2.0 0.00 -- 81.0 45.0
07/13/2019 18:00 1294.64 2.0 0.00 -- 81.0 50.0
07/13/2019 17:00 1294.62 2.0 0.00 -- 79.7 46.0
07/13/2019 16:00 1294.63 2.0 0.00 -- 78.7 48.0
07/13/2019 15:00 1294.64 2.0 0.00 -- 77.0 50.0
07/13/2019 14:00 1294.64 2.0 0.00 -- 76.0 49.0
07/13/2019 13:00 1294.65 2.0 0.00 -- 74.1 56.0
07/13/2019 12:00 1294.64 2.0 0.00 -- 72.9 57.0
07/13/2019 11:00 1294.66 2.0 0.00 -- 71.5 65.0
07/13/2019 10:00 1294.64 2.0 0.00 -- 69.1 71.0
07/13/2019 09:00 1294.65 2.0 0.00 -- 66.3 79.0
07/13/2019 08:00 1294.65 2.0 0.00 -- 59.3 100.0
07/13/2019 07:00 1294.64 2.0 0.00 -- 58.3 100.0
07/13/2019 06:00 1294.64 2.0 0.00 -- 58.4 100.0
07/13/2019 05:00 1294.64 2.0 0.00 -- 59.4 100.0
07/13/2019 04:00 1294.64 2.0 0.00 -- 61.3 100.0
07/13/2019 03:00 1294.65 2.0 0.00 -- 61.8 100.0
07/13/2019 02:00 1294.65 2.0 0.00 -- 63.5 100.0
07/13/2019 01:00 1294.65 3.0 0.00 -- 65.2 100.0
07/13/2019 00:00 1294.65 3.0 0.00 0.00 64.5 100.0
07/12/2019 23:00 1294.65 2.0 0.00 -- 66.2 99.0
07/12/2019 22:00 1294.65 3.0 0.00 -- 67.7 94.0
07/12/2019 21:00 1294.65 3.0 0.00 -- 73.2 76.0
07/12/2019 20:00 1294.65 3.0 0.00 -- 77.2 66.0
07/12/2019 19:00 1294.65 3.0 0.00 -- 78.7 59.0
07/12/2019 18:00 1294.66 2.0 0.01 -- 78.4 63.0
07/12/2019 17:00 1294.67 3.0 0.00 -- 73.3 91.0
07/12/2019 16:00 1294.66 3.0 0.00 -- 78.5 59.0
07/12/2019 15:00 1294.67 3.0 0.00 -- 78.4 63.0
07/12/2019 14:00 1294.66 4.0 0.00 -- 73.9 76.0
07/12/2019 13:00 1294.66 3.0 0.00 -- 75.3 75.0
07/12/2019 12:00 1294.66 3.0 0.00 -- 75.1 69.0
07/12/2019 11:00 1294.66 3.0 0.00 -- 72.9 77.0
07/12/2019 10:00 1294.65 3.0 0.00 -- 70.5 88.0
07/12/2019 09:00 1294.65 3.0 0.00 -- 68.7 99.0
07/12/2019 08:00 1294.66 3.0 0.00 -- 67.2 100.0
07/12/2019 07:00 1294.66 3.0 0.00 -- 66.6 100.0
07/12/2019 06:00 1294.64 2.0 0.00 -- 66.6 100.0
07/12/2019 05:00 1294.65 2.0 0.00 -- 66.7 100.0
07/12/2019 04:00 1294.64 2.0 0.00 -- 67.1 100.0
07/12/2019 03:00 1294.64 2.0 0.00 -- 67.1 100.0
07/12/2019 02:00 1294.64 2.0 0.00 -- 67.1 100.0
07/12/2019 01:00 1294.65 2.0 0.00 -- 65.9 100.0
07/12/2019 00:00 1294.64 2.0 0.00 0.01 65.7 99.0
07/11/2019 23:00 1294.65 2.0 0.00 -- 64.8 100.0
07/11/2019 22:00 1294.64 2.0 0.00 -- 65.4 100.0
07/11/2019 21:00 1294.65 2.0 0.00 -- 66.3 100.0
07/11/2019 20:00 1294.65 2.0 0.00 -- 69.2 100.0
07/11/2019 19:00 1294.65 3.0 0.00 -- 70.2 100.0
07/11/2019 18:00 1294.65 3.0 0.00 -- 71.2 100.0
07/11/2019 17:00 1294.67 2.0 0.24 -- 70.6 100.0
07/11/2019 16:00 1294.61 2.0 0.12 -- 73.2 94.0
07/11/2019 15:00 1294.62 2.0 0.00 -- 77.9 66.0
07/11/2019 14:00 1294.61 2.0 0.00 -- 76.1 65.0
07/11/2019 13:00 1294.62 2.0 0.00 -- 77.5 70.0
07/11/2019 12:00 1294.63 2.0 0.00 -- 77.6 68.0
07/11/2019 11:00 1294.64 2.0 0.00 -- 73.7 72.0
07/11/2019 10:00 1294.63 2.0 0.00 -- 68.2 80.0
07/11/2019 09:00 1294.64 2.0 0.00 -- 64.2 92.0
07/11/2019 08:00 1294.63 2.0 0.00 -- 58.5 100.0
07/11/2019 07:00 1294.63 2.0 0.00 -- 56.9 100.0
07/11/2019 06:00 1294.64 2.0 0.00 -- 57.4 100.0
07/11/2019 05:00 1294.64 2.0 0.00 -- 58.5 100.0
07/11/2019 04:00 1294.63 2.0 0.00 -- 58.1 100.0
07/11/2019 03:00 1294.64 2.0 0.00 -- 58.9 100.0
07/11/2019 02:00 1294.64 2.0 0.00 -- 59.8 100.0
07/11/2019 01:00 1294.64 2.0 0.00 -- 61.1 100.0
07/11/2019 00:00 1294.64 2.0 0.00 0.36 62.8 99.0
07/10/2019 23:00 1294.64 2.0 0.00 -- 64.9 86.0
07/10/2019 22:00 1294.64 2.0 0.00 -- 68.6 79.0
07/10/2019 21:00 1294.64 2.0 0.00 -- 74.9 62.0
07/10/2019 20:00 1294.64 2.0 0.00 -- 81.5 52.0
07/10/2019 19:00 1294.64 2.0 0.00 -- 81.0 43.0
07/10/2019 18:00 1294.64 2.0 0.00 -- 82.0 36.0
07/10/2019 17:00 1294.64 2.0 0.00 -- 82.3 31.0
07/10/2019 16:00 1294.63 2.0 0.00 -- 82.9 35.0
07/10/2019 15:00 1294.63 2.0 0.00 -- 80.1 36.0
07/10/2019 14:00 1294.64 2.0 0.00 -- 80.1 36.0
07/10/2019 13:00 1294.63 2.0 0.00 -- 78.3 38.0
07/10/2019 12:00 1294.64 2.0 0.00 -- 77.3 40.0
07/10/2019 11:00 1294.64 2.0 0.00 -- 76.2 48.0
07/10/2019 10:00 1294.64 2.0 0.00 -- 70.5 63.0
07/10/2019 09:00 1294.65 2.0 0.00 -- 61.8 100.0
07/10/2019 08:00 1294.65 2.0 0.00 -- 56.1 100.0
07/10/2019 07:00 1294.65 2.0 0.00 -- 54.6 100.0
07/10/2019 06:00 1294.65 3.0 0.00 -- 54.8 100.0
07/10/2019 05:00 1294.65 2.0 0.00 -- 56.6 100.0
07/10/2019 04:00 1294.65 3.0 0.00 -- 55.7 100.0
07/10/2019 03:00 1294.65 2.0 0.00 -- 57.4 100.0
07/10/2019 02:00 1294.65 2.0 0.00 -- 58.4 99.0
07/10/2019 01:00 1294.65 2.0 0.00 -- 58.5 94.0
07/10/2019 00:00 1294.65 2.0 0.00 0.00 59.5 87.0
07/09/2019 23:00 1294.65 2.0 0.00 -- 61.6 84.0
07/09/2019 22:00 1294.65 3.0 0.00 -- 64.9 74.0
07/09/2019 21:00 1294.65 3.0 0.00 -- 70.8 61.0
07/09/2019 20:00 1294.65 3.0 0.00 -- 79.1 35.0
07/09/2019 19:00 1294.65 2.0 0.00 -- 80.1 34.0
07/09/2019 18:00 1294.66 2.0 0.00 -- 80.1 34.0
07/09/2019 17:00 1294.66 3.0 0.00 -- 78.9 36.0
07/09/2019 16:00 1294.66 3.0 0.00 -- 79.7 32.0
07/09/2019 15:00 1294.67 3.0 0.00 -- 78.8 32.0
07/09/2019 14:00 1294.67 3.0 0.00 -- 77.3 32.0
07/09/2019 13:00 1294.68 3.0 0.00 -- 75.7 36.0
07/09/2019 12:00 1294.68 4.0 0.00 -- 74.3 41.0
07/09/2019 11:00 1294.67 4.0 0.00 -- 73.0 41.0
07/09/2019 10:00 1294.67 3.0 0.00 -- 67.6 60.0
07/09/2019 09:00 1294.66 3.0 0.00 -- 57.8 99.0
07/09/2019 08:00 1294.66 3.0 0.00 -- 52.8 99.0
07/09/2019 07:00 1294.67 3.0 0.00 -- 51.7 100.0
07/09/2019 06:00 1294.67 3.0 0.00 -- 51.6 100.0
07/09/2019 05:00 1294.67 3.0 0.00 -- 51.5 100.0
07/09/2019 04:00 1294.67 3.0 0.00 -- 52.0 100.0
07/09/2019 03:00 1294.67 3.0 0.00 -- 53.3 100.0
07/09/2019 02:00 1294.67 3.0 0.00 -- 55.8 100.0
07/09/2019 01:00 1294.67 3.0 0.00 -- 55.2 99.0
07/09/2019 00:00 1294.67 3.0 0.00 0.00 56.8 99.0
07/08/2019 23:00 1294.67 4.0 0.00 -- 58.1 91.0
07/08/2019 22:00 1294.67 3.0 0.00 -- 61.4 70.0
07/08/2019 21:00 1294.67 3.0 0.00 -- 68.1 60.0
07/08/2019 20:00 1294.67 4.0 0.00 -- 79.1 38.0
07/08/2019 19:00 1294.68 3.0 0.00 -- 80.1 26.0
07/08/2019 18:00 1294.67 4.0 0.00 -- 78.6 27.0
07/08/2019 17:00 1294.67 4.0 0.00 -- 78.9 32.0
07/08/2019 16:00 1294.68 4.0 0.00 -- 76.5 34.0
07/08/2019 15:00 1294.67 4.0 0.00 -- 75.8 31.0
07/08/2019 14:00 1294.67 4.0 0.00 -- 73.3 31.0
07/08/2019 13:00 1294.68 4.0 0.00 -- 72.0 36.0
07/08/2019 12:00 1294.68 4.0 0.00 -- 70.1 39.0
07/08/2019 11:00 1294.68 4.0 0.00 -- 68.4 48.0
07/08/2019 10:00 1294.68 4.0 0.00 -- 63.3 59.0
07/08/2019 09:00 1294.68 4.0 0.00 -- 54.5 99.0
07/08/2019 08:00 1294.68 4.0 0.00 -- 48.8 99.0
07/08/2019 07:00 1294.69 4.0 0.00 -- 47.5 100.0
07/08/2019 06:00 1294.69 5.0 0.00 -- 48.2 100.0
07/08/2019 05:00 1294.69 5.0 0.00 -- 48.2 100.0
07/08/2019 04:00 1294.69 5.0 0.00 -- 49.6 100.0
07/08/2019 03:00 1294.69 5.0 0.00 -- 51.7 99.0
07/08/2019 02:00 1294.69 5.0 0.00 -- 53.0 99.0
07/08/2019 01:00 1294.69 5.0 0.00 -- 52.6 96.0
07/08/2019 00:00 1294.69 4.0 0.00 0.00 56.8 99.0
07/07/2019 23:00 1294.69 5.0 0.00 -- 58.0 92.0
07/07/2019 22:00 1294.69 5.0 0.00 -- 61.2 74.0
07/07/2019 21:00 1294.69 5.0 0.00 -- 68.1 62.0
07/07/2019 20:00 1294.69 5.0 0.00 -- 76.5 39.0
07/07/2019 19:00 1294.70 6.0 0.00 -- 77.3 38.0
07/07/2019 18:00 1294.71 6.0 0.00 -- 76.7 34.0
07/07/2019 17:00 1294.70 6.0 0.00 -- 76.7 32.0
07/07/2019 16:00 1294.70 6.0 0.00 -- 75.5 31.0
07/07/2019 15:00 1294.72 5.0 0.00 -- 73.5 31.0
07/07/2019 14:00 1294.72 6.0 0.00 -- 72.9 37.0
07/07/2019 13:00 1294.69 7.0 0.00 -- 70.5 38.0
07/07/2019 12:00 1294.72 7.0 0.00 -- 70.4 42.0
07/07/2019 11:00 1294.71 6.0 0.00 -- 68.5 52.0
07/07/2019 10:00 1294.70 6.0 0.00 -- 65.1 68.0
07/07/2019 09:00 1294.71 7.0 0.00 -- 61.8 73.0
07/07/2019 08:00 1294.70 7.0 0.00 -- 57.9 97.0
07/07/2019 07:00 1294.70 6.0 0.00 -- 56.8 100.0
07/07/2019 06:00 1294.70 6.0 0.00 -- 57.5 100.0
07/07/2019 05:00 1294.71 6.0 0.00 -- 59.0 100.0
07/07/2019 04:00 1294.71 7.0 0.00 -- 62.1 100.0
07/07/2019 03:00 1294.71 6.0 0.00 -- 63.8 100.0
07/07/2019 02:00 1294.70 6.0 0.00 -- 64.0 100.0
07/07/2019 01:00 1294.70 6.0 0.00 -- 65.4 100.0
07/07/2019 00:00 1294.70 6.0 0.00 0.00 67.0 100.0
07/06/2019 23:00 1294.70 5.0 0.00 -- 67.4 100.0
07/06/2019 22:00 1294.70 6.0 0.00 -- 67.8 100.0
07/06/2019 21:00 1294.71 5.0 0.00 -- 68.4 100.0
07/06/2019 20:00 1294.70 6.0 0.00 -- 68.6 100.0
07/06/2019 19:00 1294.70 6.0 0.00 -- 70.6 100.0
07/06/2019 18:00 1294.69 7.0 0.12 -- 72.1 100.0
07/06/2019 17:00 1294.69 3.0 0.00 -- 75.7 88.0
07/06/2019 16:00 1294.66 3.0 0.00 -- 75.4 100.0
07/06/2019 15:00 1294.63 3.0 0.14 -- 70.2 100.0
07/06/2019 14:00 1294.64 3.0 0.00 -- 83.0 58.0
07/06/2019 13:00 1294.65 3.0 0.00 -- 79.7 69.0
07/06/2019 12:00 1294.65 3.0 0.00 -- 79.7 67.0
07/06/2019 11:00 1294.65 2.0 0.00 -- 77.8 74.0
07/06/2019 10:00 1294.64 2.0 0.00 -- 74.1 86.0
07/06/2019 09:00 1294.63 2.0 0.00 -- 71.9 94.0
07/06/2019 08:00 1294.64 2.0 0.00 -- 70.0 100.0
07/06/2019 07:00 1294.65 2.0 0.00 -- 69.4 100.0
07/06/2019 06:00 1294.64 2.0 0.00 -- 69.1 100.0
07/06/2019 05:00 1294.65 2.0 0.00 -- 69.0 100.0
07/06/2019 04:00 1294.65 3.0 0.00 -- 69.1 100.0
07/06/2019 03:00 1294.65 2.0 0.00 -- 69.4 99.0
07/06/2019 02:00 1294.64 3.0 0.00 -- 69.7 88.0
07/06/2019 01:00 1294.65 2.0 0.00 -- 69.9 80.0
07/06/2019 00:00 1294.65 3.0 0.00 0.26 69.8 69.0
07/05/2019 23:00 1294.66 3.0 0.00 -- 70.0 66.0
07/05/2019 22:00 1294.66 3.0 0.00 -- 73.3 56.0
07/05/2019 21:00 1294.65 3.0 0.00 -- 75.4 56.0
07/05/2019 20:00 1294.65 3.0 0.00 -- 81.4 47.0
07/05/2019 19:00 1294.67 3.0 0.00 -- 82.5 42.0
07/05/2019 18:00 1294.65 3.0 0.00 -- 86.4 33.0
07/05/2019 17:00 1294.64 3.0 0.00 -- 85.6 36.0
07/05/2019 16:00 1294.65 2.0 0.00 -- 83.9 37.0
07/05/2019 15:00 1294.64 3.0 0.00 -- 83.6 38.0
07/05/2019 14:00 1294.65 2.0 0.00 -- 82.0 41.0
07/05/2019 13:00 1294.64 2.0 0.00 -- 80.8 41.0
07/05/2019 12:00 1294.65 2.0 0.00 -- 79.2 39.0
07/05/2019 11:00 1294.66 3.0 0.00 -- 78.5 41.0
07/05/2019 10:00 1294.66 3.0 0.00 -- 75.5 53.0
07/05/2019 09:00 1294.67 3.0 0.00 -- 70.1 69.0
07/05/2019 08:00 1294.67 3.0 0.00 -- 62.9 100.0
07/05/2019 07:00 1294.67 4.0 0.00 -- 61.3 100.0
07/05/2019 06:00 1294.67 3.0 0.00 -- 61.7 100.0
07/05/2019 05:00 1294.67 4.0 0.00 -- 62.3 100.0
07/05/2019 04:00 1294.67 4.0 0.00 -- 63.0 100.0
07/05/2019 03:00 1294.67 4.0 0.00 -- 62.8 100.0
07/05/2019 02:00 1294.67 4.0 0.00 -- 62.1 100.0
07/05/2019 01:00 1294.68 4.0 0.00 -- 63.6 100.0
07/05/2019 00:00 1294.68 4.0 0.00 0.00 64.7 99.0
07/04/2019 23:00 1294.68 4.0 0.00 -- 66.3 93.0
07/04/2019 22:00 1294.68 4.0 0.00 -- 69.3 78.0
07/04/2019 21:00 1294.68 4.0 0.00 -- 73.6 65.0
07/04/2019 20:00 1294.68 4.0 0.00 -- 81.4 49.0
07/04/2019 19:00 1294.67 4.0 0.00 -- 84.4 37.0
07/04/2019 18:00 1294.68 4.0 0.00 -- 83.6 37.0
07/04/2019 17:00 1294.68 4.0 0.00 -- 84.8 37.0
07/04/2019 16:00 1294.68 4.0 0.00 -- 85.4 31.0
07/04/2019 15:00 1294.68 4.0 0.00 -- 83.3 37.0
07/04/2019 14:00 1294.68 4.0 0.00 -- 81.9 35.0
07/04/2019 13:00 1294.68 4.0 0.00 -- 80.3 35.0
07/04/2019 12:00 1294.68 4.0 0.00 -- 80.5 42.0
07/04/2019 11:00 1294.68 4.0 0.00 -- 78.7 45.0
07/04/2019 10:00 1294.68 4.0 0.00 -- 73.6 57.0
07/04/2019 09:00 1294.68 4.0 0.00 -- 67.0 86.0
07/04/2019 08:00 1294.68 4.0 0.00 -- 63.0 100.0
07/04/2019 07:00 1294.68 4.0 0.00 -- 61.1 100.0
07/04/2019 06:00 1294.68 4.0 0.00 -- 61.9 100.0
07/04/2019 05:00 1294.68 5.0 0.00 -- 61.2 100.0
07/04/2019 04:00 1294.68 4.0 0.00 -- 60.3 100.0
07/04/2019 03:00 1294.69 4.0 0.00 -- 62.5 99.0
07/04/2019 02:00 1294.69 5.0 0.00 -- 64.2 96.0
07/04/2019 01:00 1294.69 5.0 0.00 -- 64.2 98.0
07/04/2019 00:00 1294.68 5.0 0.00 0.00 63.5 99.0
07/03/2019 23:00 1294.68 5.0 0.00 -- 65.7 92.0
07/03/2019 22:00 1294.69 5.0 0.00 -- 69.7 78.0
07/03/2019 21:00 1294.69 5.0 0.00 -- 74.3 68.0
07/03/2019 20:00 1294.68 5.0 0.00 -- 82.9 51.0
07/03/2019 19:00 1294.68 4.0 0.00 -- 82.7 41.0
07/03/2019 18:00 1294.68 5.0 0.00 -- 83.9 38.0
07/03/2019 17:00 1294.69 5.0 0.00 -- 82.9 34.0
07/03/2019 16:00 1294.70 5.0 0.00 -- 81.6 41.0
07/03/2019 15:00 1294.69 6.0 0.00 -- 81.0 40.0
07/03/2019 14:00 1294.70 6.0 0.00 -- 80.0 37.0
07/03/2019 13:00 1294.69 6.0 0.00 -- 79.5 37.0
07/03/2019 12:00 1294.70 5.0 0.00 -- 77.5 44.0
07/03/2019 11:00 1294.69 5.0 0.00 -- 76.7 45.0
07/03/2019 10:00 1294.69 5.0 0.00 -- 72.3 61.0
07/03/2019 09:00 1294.69 5.0 0.00 -- 63.7 100.0
07/03/2019 08:00 1294.69 5.0 0.00 -- 59.1 100.0
07/03/2019 07:00 1294.69 5.0 0.00 -- 56.9 100.0
07/03/2019 06:00 1294.69 5.0 0.00 -- 57.3 100.0
07/03/2019 05:00 1294.69 5.0 0.00 -- 57.7 100.0
07/03/2019 04:00 1294.69 5.0 0.00 -- 58.7 100.0
07/03/2019 03:00 1294.69 5.0 0.00 -- 60.2 100.0
07/03/2019 02:00 1294.69 5.0 0.00 -- 61.5 100.0
07/03/2019 01:00 1294.69 5.0 0.00 -- 62.8 100.0
07/03/2019 00:00 1294.69 5.0 0.00 0.00 64.9 99.0
07/02/2019 23:00 1294.70 5.0 0.00 -- 66.5 84.0
07/02/2019 22:00 1294.69 5.0 0.00 -- 67.3 79.0
07/02/2019 21:00 1294.70 5.0 0.00 -- 73.0 65.0
07/02/2019 20:00 1294.69 5.0 0.00 -- 77.5 51.0
07/02/2019 19:00 1294.70 5.0 0.00 -- 79.2 50.0
07/02/2019 18:00 1294.69 5.0 0.00 -- 79.6 46.0
07/02/2019 17:00 1294.68 6.0 0.00 -- 79.2 44.0
07/02/2019 16:00 1294.69 6.0 0.00 -- 78.0 45.0
07/02/2019 15:00 1294.68 4.0 0.00 -- 76.9 42.0
07/02/2019 14:00 1294.69 4.0 0.00 -- 74.1 53.0
07/02/2019 13:00 1294.70 4.0 0.00 -- 71.8 57.0
07/02/2019 12:00 1294.68 6.0 0.00 -- 67.8 66.0
07/02/2019 11:00 1294.70 5.0 0.00 -- 66.6 74.0
07/02/2019 10:00 1294.70 5.0 0.00 -- 65.0 82.0
07/02/2019 09:00 1294.69 5.0 0.00 -- 61.4 99.0
07/02/2019 08:00 1294.70 5.0 0.00 -- 59.4 100.0
07/02/2019 07:00 1294.69 5.0 0.00 -- 58.5 100.0
07/02/2019 06:00 1294.69 5.0 0.00 -- 58.9 100.0
07/02/2019 05:00 1294.69 5.0 0.00 -- 58.7 100.0
07/02/2019 04:00 1294.69 5.0 0.00 -- 59.2 100.0
07/02/2019 03:00 1294.69 5.0 0.00 -- 60.0 100.0
07/02/2019 02:00 1294.69 5.0 0.00 -- 59.5 100.0
07/02/2019 01:00 1294.69 5.0 0.00 -- 58.4 99.0
07/02/2019 00:00 1294.69 5.0 0.00 0.00 59.3 99.0
07/01/2019 23:00 1294.69 5.0 0.00 -- 61.0 96.0
07/01/2019 22:00 1294.70 5.0 0.00 -- 63.3 87.0
07/01/2019 21:00 1294.70 5.0 0.00 -- 69.1 72.0
07/01/2019 20:00 1294.70 6.0 0.00 -- 78.7 46.0
07/01/2019 19:00 1294.70 6.0 0.00 -- 78.7 39.0
07/01/2019 18:00 1294.70 6.0 0.00 -- 77.0 46.0
07/01/2019 17:00 1294.72 6.0 0.00 -- 75.8 55.0
07/01/2019 16:00 1294.71 7.0 0.00 -- 74.3 51.0
07/01/2019 15:00 1294.72 6.0 0.00 -- 75.5 44.0
07/01/2019 14:00 1294.73 8.0 0.00 -- 73.9 48.0
07/01/2019 13:00 1294.74 9.0 0.00 -- 72.2 53.0
07/01/2019 12:00 1294.72 10.0 0.00 -- 70.1 58.0
07/01/2019 11:00 1294.72 7.0 0.00 -- 68.2 70.0
07/01/2019 10:00 1294.70 7.0 0.00 -- 64.3 81.0
07/01/2019 09:00 1294.72 7.0 0.00 -- 59.8 99.0
07/01/2019 08:00 1294.71 17.0 0.00 -- 55.9 100.0
07/01/2019 07:00 1294.70 16.0 0.00 -- 53.5 100.0
07/01/2019 06:00 1294.70 16.0 0.00 -- 53.9 100.0
07/01/2019 05:00 1294.71 16.0 0.00 -- 54.2 100.0
07/01/2019 04:00 1294.71 16.0 0.00 -- 54.2 100.0
07/01/2019 03:00 1294.71 16.0 0.00 -- 54.7 100.0
07/01/2019 02:00 1294.71 16.0 0.00 -- 54.7 100.0
07/01/2019 01:00 1294.71 17.0 0.00 -- 55.6 100.0
07/01/2019 00:00 1294.70 16.0 0.00 0.00 55.7 100.0
06/30/2019 23:00 1294.71 17.0 0.00 -- 56.6 100.0
06/30/2019 22:00 1294.71 17.0 0.00 -- 58.3 100.0
06/30/2019 21:00 1294.71 17.0 0.00 -- 60.4 100.0
06/30/2019 20:00 1294.71 18.0 0.02 -- 62.1 100.0
06/30/2019 19:00 1294.71 18.0 0.02 -- 60.1 100.0
06/30/2019 18:00 1294.75 16.0 0.00 -- 61.0 99.0
06/30/2019 17:00 1294.73 18.0 0.00 -- 66.0 78.0
06/30/2019 16:00 1294.73 19.0 0.00 -- 67.8 66.0
06/30/2019 15:00 1294.73 18.0 0.00 -- 64.5 78.0
06/30/2019 14:00 1294.72 20.0 0.00 -- 62.7 90.0
06/30/2019 13:00 1294.72 17.0 0.00 -- 64.4 82.0
06/30/2019 12:00 1294.72 17.0 0.00 -- 64.7 78.0
06/30/2019 11:00 1294.72 18.0 0.00 -- 62.2 82.0
06/30/2019 10:00 1294.71 18.0 0.00 -- 60.8 99.0
06/30/2019 09:00 1294.72 17.0 0.00 -- 60.5 99.0
06/30/2019 08:00 1294.72 18.0 0.00 -- 57.1 100.0
06/30/2019 07:00 1294.71 17.0 0.00 -- 56.3 100.0
06/30/2019 06:00 1294.71 17.0 0.00 -- 55.8 100.0
06/30/2019 05:00 1294.71 18.0 0.00 -- 56.6 100.0
06/30/2019 04:00 1294.70 18.0 0.00 -- 58.4 100.0
06/30/2019 03:00 1294.71 17.0 0.00 -- 58.1 100.0
06/30/2019 02:00 1294.74 18.0 0.04 -- 59.8 100.0
06/30/2019 01:00 1294.74 18.0 0.00 -- 62.4 100.0
06/30/2019 00:00 1294.72 24.0 0.00 0.08 64.6 100.0
06/29/2019 23:00 1294.72 18.0 0.04 -- 64.9 100.0
06/29/2019 22:00 1294.71 18.0 0.00 -- 66.4 94.0
06/29/2019 21:00 1294.72 17.0 0.00 -- 71.8 78.0
06/29/2019 20:00 1294.71 18.0 0.00 -- 77.5 58.0
06/29/2019 19:00 1294.71 18.0 0.00 -- 76.8 60.0
06/29/2019 18:00 1294.71 17.0 0.00 -- 75.7 61.0
06/29/2019 17:00 1294.72 18.0 0.00 -- 74.8 63.0
06/29/2019 16:00 1294.73 18.0 0.00 -- 73.0 69.0
06/29/2019 15:00 1294.71 19.0 0.00 -- 72.6 69.0
06/29/2019 14:00 1294.71 19.0 0.00 -- 71.8 66.0
06/29/2019 13:00 1294.71 18.0 0.00 -- 70.0 76.0
06/29/2019 12:00 1294.72 18.0 0.00 -- 68.4 79.0
06/29/2019 11:00 1294.73 20.0 0.01 -- 64.9 99.0
06/29/2019 10:00 1294.72 20.0 0.00 -- 64.9 97.0
06/29/2019 09:00 1294.72 19.0 0.00 -- 62.7 100.0
06/29/2019 08:00 1294.72 19.0 0.01 -- 61.4 100.0
06/29/2019 07:00 1294.72 19.0 0.00 -- 61.9 100.0
06/29/2019 06:00 1294.72 19.0 0.00 -- 62.7 100.0
06/29/2019 05:00 1294.73 19.0 0.00 -- 63.1 100.0
06/29/2019 04:00 1294.73 19.0 0.00 -- 63.2 84.0
06/29/2019 03:00 1294.72 19.0 0.00 -- 63.9 78.0
06/29/2019 02:00 1294.73 18.0 0.00 -- 63.5 81.0
06/29/2019 01:00 1294.72 19.0 0.00 -- 63.5 81.0
06/29/2019 00:00 1294.73 19.0 0.00 0.06 64.0 84.0
06/28/2019 23:00 1294.73 19.0 0.00 -- 64.3 76.0
06/28/2019 22:00 1294.74 19.0 0.00 -- 67.0 73.0
06/28/2019 21:00 1294.73 20.0 0.00 -- 71.9 60.0
06/28/2019 20:00 1294.73 20.0 0.00 -- 80.5 45.0
06/28/2019 19:00 1294.73 20.0 0.00 -- 84.7 28.0
06/28/2019 18:00 1294.74 20.0 0.00 -- 83.3 34.0
06/28/2019 17:00 1294.74 21.0 0.00 -- 83.9 31.0
06/28/2019 16:00 1294.74 21.0 0.00 -- 82.0 32.0
06/28/2019 15:00 1294.75 22.0 0.00 -- 81.2 35.0
06/28/2019 14:00 1294.74 21.0 0.00 -- 79.8 36.0
06/28/2019 13:00 1294.75 23.0 0.00 -- 78.4 37.0
06/28/2019 12:00 1294.75 22.0 0.00 -- 77.2 40.0
06/28/2019 11:00 1294.75 22.0 0.00 -- 74.7 48.0
06/28/2019 10:00 1294.74 22.0 0.00 -- 70.7 61.0
06/28/2019 09:00 1294.75 21.0 0.00 -- 62.8 89.0
06/28/2019 08:00 1294.75 21.0 0.00 -- 56.9 100.0
06/28/2019 07:00 1294.75 22.0 0.00 -- 55.7 100.0
06/28/2019 06:00 1294.75 22.0 0.00 -- 55.7 100.0
06/28/2019 05:00 1294.75 22.0 0.00 -- 55.6 100.0
06/28/2019 04:00 1294.75 23.0 0.00 -- 56.4 100.0
06/28/2019 03:00 1294.76 23.0 0.00 -- 57.5 100.0
06/28/2019 02:00 1294.76 23.0 0.00 -- 57.1 100.0
06/28/2019 01:00 1294.76 23.0 0.00 -- 58.4 100.0
06/28/2019 00:00 1294.76 23.0 0.00 0.00 60.0 100.0
06/27/2019 23:00 1294.76 24.0 0.00 -- 62.1 99.0
06/27/2019 22:00 1294.76 24.0 0.00 -- 65.0 82.0
06/27/2019 21:00 1294.76 24.0 0.00 -- 72.5 71.0
06/27/2019 20:00 1294.77 24.0 0.00 -- 76.4 59.0
06/27/2019 19:00 1294.77 24.0 0.00 -- 79.2 40.0
06/27/2019 18:00 1294.77 25.0 0.00 -- 81.0 29.0
06/27/2019 17:00 1294.77 25.0 0.00 -- 81.1 31.0
06/27/2019 16:00 1294.77 23.0 0.00 -- 81.0 37.0
06/27/2019 15:00 1294.77 26.0 0.00 -- 78.0 48.0
06/27/2019 14:00 1294.78 24.0 0.00 -- 77.4 45.0
06/27/2019 13:00 1294.77 25.0 0.00 -- 76.0 50.0
06/27/2019 12:00 1294.78 26.0 0.00 -- 75.0 51.0
06/27/2019 11:00 1294.77 26.0 0.00 -- 72.7 63.0
06/27/2019 10:00 1294.78 25.0 0.00 -- 70.3 67.0
06/27/2019 09:00 1294.78 25.0 0.00 -- 64.6 96.0
06/27/2019 08:00 1294.78 26.0 0.00 -- 60.4 100.0
06/27/2019 07:00 1294.77 26.0 0.00 -- 59.1 100.0
06/27/2019 06:00 1294.78 26.0 0.00 -- 60.9 100.0
06/27/2019 05:00 1294.78 26.0 0.00 -- 60.6 100.0
06/27/2019 04:00 1294.78 26.0 0.00 -- 60.4 100.0
06/27/2019 03:00 1294.79 27.0 0.00 -- 59.4 100.0
06/27/2019 02:00 1294.78 27.0 0.00 -- 60.4 100.0
06/27/2019 01:00 1294.79 27.0 0.00 -- 62.7 100.0
06/27/2019 00:00 1294.78 27.0 0.00 0.00 64.6 100.0
06/26/2019 23:00 1294.78 26.0 0.01 -- 63.9 100.0
06/26/2019 22:00 1294.79 26.0 0.00 -- 65.9 87.0
06/26/2019 21:00 1294.79 27.0 0.00 -- 68.8 76.0
06/26/2019 20:00 1294.79 27.0 0.00 -- 75.9 59.0
06/26/2019 19:00 1294.78 27.0 0.00 -- 82.9 36.0
06/26/2019 18:00 1294.79 27.0 0.00 -- 82.4 35.0
06/26/2019 17:00 1294.79 27.0 0.00 -- 80.9 39.0
06/26/2019 16:00 1294.78 27.0 0.00 -- 78.5 43.0
06/26/2019 15:00 1294.79 27.0 0.00 -- 76.8 53.0
06/26/2019 14:00 1294.79 27.0 0.00 -- 75.4 57.0
06/26/2019 13:00 1294.79 27.0 0.00 -- 72.8 62.0
06/26/2019 12:00 1294.81 28.0 0.01 -- 71.6 67.0
06/26/2019 11:00 1294.79 30.0 0.00 -- 67.7 99.0
06/26/2019 10:00 1294.79 27.0 0.00 -- 65.9 100.0
06/26/2019 09:00 1294.79 27.0 0.00 -- 61.9 100.0
06/26/2019 08:00 1294.79 27.0 0.00 -- 59.2 100.0
06/26/2019 07:00 1294.79 28.0 0.00 -- 58.6 100.0
06/26/2019 06:00 1294.79 27.0 0.00 -- 58.3 100.0
06/26/2019 05:00 1294.79 28.0 0.00 -- 60.2 100.0
06/26/2019 04:00 1294.79 27.0 0.00 -- 60.7 100.0
06/26/2019 03:00 1294.78 26.0 0.00 -- 62.2 100.0
06/26/2019 02:00 1294.78 27.0 0.00 -- 62.1 100.0
06/26/2019 01:00 1294.78 27.0 0.00 -- 62.4 100.0
06/26/2019 00:00 1294.78 27.0 0.00 0.02 62.3 100.0
06/25/2019 23:00 1294.78 25.0 0.00 -- 62.9 100.0
06/25/2019 22:00 1294.78 27.0 0.00 -- 62.9 100.0
06/25/2019 21:00 1294.78 26.0 0.00 -- 63.4 100.0
06/25/2019 20:00 1294.77 26.0 0.00 -- 63.4 100.0
06/25/2019 19:00 1294.78 25.0 0.04 -- 62.5 100.0
06/25/2019 18:00 1294.78 25.0 0.23 -- 61.8 100.0
06/25/2019 17:00 1294.74 26.0 0.05 -- 61.4 100.0
06/25/2019 16:00 1294.74 21.0 0.02 -- 59.7 100.0
06/25/2019 15:00 1294.74 21.0 0.02 -- 58.7 100.0
06/25/2019 14:00 1294.74 21.0 0.00 -- 58.4 100.0
06/25/2019 13:00 1294.74 20.0 0.01 -- 58.8 100.0
06/25/2019 12:00 1294.73 21.0 0.00 -- 59.3 95.0
06/25/2019 11:00 1294.73 19.0 0.00 -- 60.9 76.0
06/25/2019 10:00 1294.73 20.0 0.00 -- 60.4 75.0
06/25/2019 09:00 1294.73 20.0 0.00 -- 59.0 74.0
06/25/2019 08:00 1294.74 20.0 0.00 -- 55.7 99.0
06/25/2019 07:00 1294.73 20.0 0.00 -- 52.8 100.0
06/25/2019 06:00 1294.73 19.0 0.00 -- 52.1 100.0
06/25/2019 05:00 1294.74 20.0 0.00 -- 51.8 100.0
06/25/2019 04:00 1294.74 20.0 0.00 -- 52.5 100.0
06/25/2019 03:00 1294.74 20.0 0.00 -- 53.2 99.0
06/25/2019 02:00 1294.74 20.0 0.00 -- 53.9 99.0
06/25/2019 01:00 1294.74 21.0 0.00 -- 55.2 99.0
06/25/2019 00:00 1294.74 -- 0.00 0.37 57.8 89.0
06/24/2019 23:00 1294.74 21.0 0.00 -- 59.2 90.0
06/24/2019 22:00 1294.74 21.0 0.00 -- 61.2 83.0
06/24/2019 21:00 1294.74 21.0 0.00 -- 66.4 65.0
06/24/2019 20:00 1294.74 21.0 0.00 -- 71.2 58.0
06/24/2019 19:00 1294.75 21.0 0.00 -- 77.0 36.0
06/24/2019 18:00 1294.75 22.0 0.00 -- 76.1 36.0
06/24/2019 17:00 1294.74 22.0 0.00 -- 77.7 33.0
06/24/2019 16:00 1294.74 21.0 0.00 -- 77.5 32.0
06/24/2019 15:00 1294.75 21.0 0.00 -- 77.0 32.0
06/24/2019 14:00 1294.76 23.0 0.00 -- 74.6 34.0
06/24/2019 13:00 1294.76 24.0 0.00 -- 73.1 32.0
06/24/2019 12:00 1294.77 24.0 0.00 -- 71.9 46.0
06/24/2019 11:00 1294.76 23.0 0.00 -- 69.6 46.0
06/24/2019 10:00 1294.76 23.0 0.00 -- 67.2 55.0
06/24/2019 09:00 1294.76 24.0 0.00 -- 59.3 78.0
06/24/2019 08:00 1294.76 23.0 0.00 -- 52.6 98.0
06/24/2019 07:00 1294.75 23.0 0.00 -- 50.7 99.0
06/24/2019 06:00 1294.76 24.0 0.00 -- 50.8 99.0
06/24/2019 05:00 1294.76 23.0 0.00 -- 51.4 97.0
06/24/2019 04:00 1294.76 23.0 0.00 -- 52.9 89.0
06/24/2019 03:00 1294.76 23.0 0.00 -- 55.8 80.0
06/24/2019 02:00 1294.76 23.0 0.00 -- 57.1 77.0
06/24/2019 01:00 1294.76 24.0 0.00 -- 56.8 83.0
06/24/2019 00:00 1294.77 24.0 0.00 0.00 58.2 82.0
06/23/2019 23:00 1294.78 24.0 0.00 -- 60.1 73.0
06/23/2019 22:00 1294.77 25.0 0.00 -- 64.5 57.0
06/23/2019 21:00 1294.77 25.0 0.00 -- 73.0 45.0
06/23/2019 20:00 1294.77 24.0 0.00 -- 77.6 31.0
06/23/2019 19:00 1294.77 24.0 0.00 -- 77.8 29.0
06/23/2019 18:00 1294.77 25.0 0.00 -- 77.3 32.0
06/23/2019 17:00 1294.77 24.0 0.00 -- 76.6 34.0
06/23/2019 16:00 1294.77 26.0 0.00 -- 75.5 34.0
06/23/2019 15:00 1294.76 28.0 0.00 -- 73.7 35.0
06/23/2019 14:00 1294.79 23.0 0.00 -- 72.0 36.0
06/23/2019 13:00 1294.80 25.0 0.00 -- 70.8 43.0
06/23/2019 12:00 1294.80 30.0 0.00 -- 69.4 41.0
06/23/2019 11:00 1294.78 27.0 0.00 -- 67.5 47.0
06/23/2019 10:00 1294.79 28.0 0.00 -- 64.8 53.0
06/23/2019 09:00 1294.78 27.0 0.00 -- 60.8 59.0
06/23/2019 08:00 1294.78 25.0 0.00 -- 51.8 97.0
06/23/2019 07:00 1294.79 27.0 0.00 -- 48.5 99.0
06/23/2019 06:00 1294.79 27.0 0.00 -- 47.8 98.0
06/23/2019 05:00 1294.79 27.0 0.00 -- 48.4 96.0
06/23/2019 04:00 1294.79 28.0 0.00 -- 49.8 90.0
06/23/2019 03:00 1294.80 27.0 0.00 -- 51.3 85.0
06/23/2019 02:00 1294.80 28.0 0.00 -- 52.7 81.0
06/23/2019 01:00 1294.79 30.0 0.00 -- 53.9 78.0
06/23/2019 00:00 1294.79 28.0 0.00 0.00 59.9 63.0
06/22/2019 23:00 1294.80 29.0 0.00 -- 60.6 59.0
06/22/2019 22:00 1294.80 29.0 0.00 -- 63.1 50.0
06/22/2019 21:00 1294.80 29.0 0.00 -- 66.0 43.0
06/22/2019 20:00 1294.82 31.0 0.00 -- 69.3 38.0
06/22/2019 19:00 1294.82 33.0 0.00 -- 70.1 38.0
06/22/2019 18:00 1294.83 32.0 0.00 -- 69.8 38.0
06/22/2019 17:00 1294.83 32.0 0.00 -- 71.3 36.0
06/22/2019 16:00 1294.81 38.0 0.00 -- 70.9 37.0
06/22/2019 15:00 1294.84 34.0 0.00 -- 69.5 41.0
06/22/2019 14:00 1294.84 38.0 0.00 -- 69.3 38.0
06/22/2019 13:00 1294.83 32.0 0.00 -- 68.1 48.0
06/22/2019 12:00 1294.83 32.0 0.00 -- 67.7 50.0
06/22/2019 11:00 1294.83 34.0 0.00 -- 64.9 56.0
06/22/2019 10:00 1294.81 30.0 0.00 -- 62.7 62.0
06/22/2019 09:00 1294.81 32.0 0.00 -- 60.3 64.0
06/22/2019 08:00 1294.81 32.0 0.00 -- 57.8 67.0
06/22/2019 07:00 1294.81 31.0 0.01 -- 57.3 70.0
06/22/2019 06:00 1294.81 32.0 0.00 -- 50.2 99.0
06/22/2019 05:00 1294.81 31.0 0.00 -- 52.4 91.0
06/22/2019 04:00 1294.81 31.0 0.00 -- 55.3 84.0
06/22/2019 03:00 1294.81 32.0 0.00 -- 57.7 75.0
06/22/2019 02:00 1294.82 32.0 0.00 -- 55.4 92.0
06/22/2019 01:00 1294.83 31.0 0.00 -- 57.8 77.0
06/22/2019 00:00 1294.83 33.0 0.00 0.01 57.9 80.0
06/21/2019 23:00 1294.83 36.0 0.00 -- 60.5 68.0
06/21/2019 22:00 1294.82 32.0 0.00 -- 62.0 65.0
06/21/2019 21:00 1294.82 33.0 0.00 -- 62.7 65.0
06/21/2019 20:00 1294.84 32.0 0.00 -- 66.7 56.0
06/21/2019 19:00 1294.84 35.0 0.00 -- 68.5 54.0
06/21/2019 18:00 1294.83 35.0 0.00 -- 67.2 62.0
06/21/2019 17:00 1294.84 37.0 0.00 -- 64.3 69.0
06/21/2019 16:00 1294.86 29.0 0.00 -- 65.4 69.0
06/21/2019 15:00 1294.85 38.0 0.00 -- 60.2 91.0
06/21/2019 14:00 1294.84 36.0 0.00 -- 58.9 95.0
06/21/2019 13:00 1294.84 35.0 0.00 -- 58.5 99.0
06/21/2019 12:00 1294.83 37.0 0.00 -- 59.4 100.0
06/21/2019 11:00 1294.84 35.0 0.01 -- 59.7 100.0
06/21/2019 10:00 1294.83 34.0 0.01 -- 60.2 100.0
06/21/2019 09:00 1294.83 34.0 0.01 -- 59.8 100.0
06/21/2019 08:00 1294.82 35.0 0.01 -- 59.4 100.0
06/21/2019 07:00 1294.82 33.0 0.00 -- 58.7 100.0
06/21/2019 06:00 1294.82 33.0 0.01 -- 59.1 100.0
06/21/2019 05:00 1294.82 32.0 0.02 -- 59.8 100.0
06/21/2019 04:00 1294.81 32.0 0.01 -- 60.1 100.0
06/21/2019 03:00 1294.80 30.0 0.00 -- 59.8 100.0
06/21/2019 02:00 1294.80 30.0 0.00 -- 59.8 100.0
06/21/2019 01:00 1294.82 29.0 0.00 -- 60.1 100.0
06/21/2019 00:00 1294.81 30.0 0.21 0.08 61.2 100.0
06/20/2019 23:00 1294.79 37.0 0.00 -- 63.7 100.0
06/20/2019 22:00 1294.79 27.0 0.00 -- 64.9 100.0
06/20/2019 21:00 -- -- -- -- 66.7 100.0
06/20/2019 20:00 -- -- -- -- 67.5 100.0
06/20/2019 19:00 -- -- -- -- 67.0 100.0
06/20/2019 18:00 -- -- -- -- 65.3 100.0
06/20/2019 17:00 -- -- -- -- 64.3 100.0
06/20/2019 16:00 -- -- -- -- 63.7 100.0
06/20/2019 15:00 -- -- -- -- 63.4 100.0
06/20/2019 14:00 -- -- -- -- 63.7 100.0
06/20/2019 13:00 -- -- -- -- 63.7 100.0
06/20/2019 12:00 -- -- -- -- 63.2 100.0
06/20/2019 11:00 -- -- -- -- 62.6 100.0
06/20/2019 10:00 -- -- -- -- 62.2 100.0
06/20/2019 09:00 -- -- -- -- 62.0 100.0
06/20/2019 08:00 -- -- -- -- 61.9 100.0
06/20/2019 07:00 -- -- -- -- 62.0 100.0
06/20/2019 06:00 -- -- -- -- 62.6 100.0
06/20/2019 05:00 -- -- -- -- 62.6 99.0
06/20/2019 04:00 -- -- -- -- 62.9 99.0
06/20/2019 03:00 -- -- -- -- 63.3 96.0
06/20/2019 02:00 -- -- -- -- 64.0 99.0
06/20/2019 01:00 -- -- -- -- 64.2 99.0
06/20/2019 00:00 -- -- -- 0.43 64.2 99.0